<?xml version="1.0" encoding="UTF-8" standalone="no" ?>
<gpx xmlns="http://www.topografix.com/GPX/1/1" creator="CompeGPS" version="1.1" xmlns:xsi="http://www.w3.org/2001/XMLSchema-instance" xsi:schemaLocation="http://www.topografix.com/GPX/1/1 http://www.topografix.com/GPX/1/1/gpx.xsd http://www.garmin.com/xmlschemas/GpxExtensions/v3 http://www.garmin.com/xmlschemas/GpxExtensionsv3.xsd http://www.garmin.com/xmlschemas/TrackPointExtension/v1 http://www.garmin.com/xmlschemas/TrackPointExtensionv1.xsd" xmlns:gpxtpx="http://www.garmin.com/xmlschemas/TrackPointExtension/v1">
  <metadata>
    <link href="http://www.compegps.com">
      <text>CompeGPS TEAM, SL</text>
    </link>
    <time>2020-06-24T19:07:49Z</time>
    <bounds maxlat="42.841023" maxlon="0.143856" minlat="42.834458" minlon="0.113284"/>
  </metadata>
    <wpt lat="42.839299" lon="0.133305">
    <ele>2392.0</ele>
    <time>2020-06-24T19:08:48Z</time>
    <name>Breque de Barris</name>
    <desc></desc>
    <sym>Waypoint</sym>
  </wpt>
  <wpt lat="42.835164" lon="0.118921">
    <ele>2869.8</ele>
    <time>2020-06-24T19:10:13Z</time>
    <name>Couloir Nord du Ramoun</name>
    <desc></desc>
    <sym>Waypoint</sym>
  </wpt>
  <wpt lat="42.834554" lon="0.117422">
    <ele>2907.1</ele>
    <time>2020-06-24T19:21:28Z</time>
    <name>Col 2965m</name>
    <desc></desc>
    <sym>Waypoint</sym>
  </wpt>
  <wpt lat="42.835363" lon="0.115130">
    <ele>2966.7</ele>
    <time>2020-06-24T19:25:51Z</time>
    <name>Neouvielle</name>
    <desc></desc>
    <sym>Waypoint</sym>
  </wpt>
  <wpt lat="42.834774" lon="0.120001">
    <ele>2856.7</ele>
    <time>2020-06-24T19:28:59Z</time>
    <name>Ramoun</name>
    <desc></desc>
    <sym>Waypoint</sym>
  </wpt>
<trk>
    <name>neouvielle-crete-est</name>
    <userMyTwoNav></userMyTwoNav>
    <serialNumber></serialNumber>
    <trkseg>
      <trkpt lat="42.840542" lon="0.143832">
        <ele>2154.8</ele>
        <time>2020-06-21T05:07:09Z</time>
      </trkpt>
      <trkpt lat="42.840512" lon="0.143709">
        <ele>2159.9</ele>
        <time>2020-06-21T05:07:20Z</time>
      </trkpt>
      <trkpt lat="42.840478" lon="0.143581">
        <ele>2159.9</ele>
        <time>2020-06-21T05:07:32Z</time>
      </trkpt>
      <trkpt lat="42.840525" lon="0.143467">
        <ele>2159.8</ele>
        <time>2020-06-21T05:07:44Z</time>
      </trkpt>
      <trkpt lat="42.840601" lon="0.143389">
        <ele>2159.0</ele>
        <time>2020-06-21T05:08:00Z</time>
      </trkpt>
      <trkpt lat="42.840652" lon="0.143281">
        <ele>2158.3</ele>
        <time>2020-06-21T05:08:10Z</time>
      </trkpt>
      <trkpt lat="42.840674" lon="0.143172">
        <ele>2157.5</ele>
        <time>2020-06-21T05:08:20Z</time>
      </trkpt>
      <trkpt lat="42.840597" lon="0.143098">
        <ele>2157.5</ele>
        <time>2020-06-21T05:08:30Z</time>
      </trkpt>
      <trkpt lat="42.840495" lon="0.143112">
        <ele>2156.6</ele>
        <time>2020-06-21T05:08:40Z</time>
      </trkpt>
      <trkpt lat="42.840386" lon="0.143130">
        <ele>2155.9</ele>
        <time>2020-06-21T05:08:51Z</time>
      </trkpt>
      <trkpt lat="42.840288" lon="0.143154">
        <ele>2155.9</ele>
        <time>2020-06-21T05:09:03Z</time>
      </trkpt>
      <trkpt lat="42.840188" lon="0.143173">
        <ele>2155.0</ele>
        <time>2020-06-21T05:09:14Z</time>
      </trkpt>
      <trkpt lat="42.840095" lon="0.143203">
        <ele>2155.0</ele>
        <time>2020-06-21T05:09:24Z</time>
      </trkpt>
      <trkpt lat="42.839989" lon="0.143228">
        <ele>2154.3</ele>
        <time>2020-06-21T05:09:35Z</time>
      </trkpt>
      <trkpt lat="42.839890" lon="0.143275">
        <ele>2154.2</ele>
        <time>2020-06-21T05:09:45Z</time>
      </trkpt>
      <trkpt lat="42.839795" lon="0.143318">
        <ele>2153.5</ele>
        <time>2020-06-21T05:09:54Z</time>
      </trkpt>
      <trkpt lat="42.839695" lon="0.143337">
        <ele>2153.5</ele>
        <time>2020-06-21T05:10:03Z</time>
      </trkpt>
      <trkpt lat="42.839604" lon="0.143351">
        <ele>2152.7</ele>
        <time>2020-06-21T05:10:12Z</time>
      </trkpt>
      <trkpt lat="42.839518" lon="0.143400">
        <ele>2152.7</ele>
        <time>2020-06-21T05:10:20Z</time>
      </trkpt>
      <trkpt lat="42.839448" lon="0.143489">
        <ele>2152.7</ele>
        <time>2020-06-21T05:10:28Z</time>
      </trkpt>
      <trkpt lat="42.839371" lon="0.143563">
        <ele>2152.6</ele>
        <time>2020-06-21T05:10:36Z</time>
      </trkpt>
      <trkpt lat="42.839299" lon="0.143628">
        <ele>2151.8</ele>
        <time>2020-06-21T05:10:44Z</time>
      </trkpt>
      <trkpt lat="42.839208" lon="0.143628">
        <ele>2151.8</ele>
        <time>2020-06-21T05:10:54Z</time>
      </trkpt>
      <trkpt lat="42.839146" lon="0.143539">
        <ele>2151.8</ele>
        <time>2020-06-21T05:11:02Z</time>
      </trkpt>
      <trkpt lat="42.839084" lon="0.143443">
        <ele>2151.8</ele>
        <time>2020-06-21T05:11:10Z</time>
      </trkpt>
      <trkpt lat="42.839026" lon="0.143345">
        <ele>2151.8</ele>
        <time>2020-06-21T05:11:18Z</time>
      </trkpt>
      <trkpt lat="42.838974" lon="0.143248">
        <ele>2151.8</ele>
        <time>2020-06-21T05:11:26Z</time>
      </trkpt>
      <trkpt lat="42.838904" lon="0.143142">
        <ele>2151.8</ele>
        <time>2020-06-21T05:11:35Z</time>
      </trkpt>
      <trkpt lat="42.838847" lon="0.143045">
        <ele>2151.8</ele>
        <time>2020-06-21T05:11:43Z</time>
      </trkpt>
      <trkpt lat="42.838789" lon="0.142926">
        <ele>2151.0</ele>
        <time>2020-06-21T05:11:52Z</time>
      </trkpt>
      <trkpt lat="42.838757" lon="0.142788">
        <ele>2151.1</ele>
        <time>2020-06-21T05:12:01Z</time>
      </trkpt>
      <trkpt lat="42.838737" lon="0.142653">
        <ele>2151.1</ele>
        <time>2020-06-21T05:12:10Z</time>
      </trkpt>
      <trkpt lat="42.838744" lon="0.142530">
        <ele>2151.1</ele>
        <time>2020-06-21T05:12:19Z</time>
      </trkpt>
      <trkpt lat="42.838751" lon="0.142402">
        <ele>2151.1</ele>
        <time>2020-06-21T05:12:28Z</time>
      </trkpt>
      <trkpt lat="42.838763" lon="0.142268">
        <ele>2151.1</ele>
        <time>2020-06-21T05:12:37Z</time>
      </trkpt>
      <trkpt lat="42.838767" lon="0.142143">
        <ele>2151.1</ele>
        <time>2020-06-21T05:12:45Z</time>
      </trkpt>
      <trkpt lat="42.838777" lon="0.142005">
        <ele>2151.1</ele>
        <time>2020-06-21T05:12:54Z</time>
      </trkpt>
      <trkpt lat="42.838783" lon="0.141881">
        <ele>2151.1</ele>
        <time>2020-06-21T05:13:02Z</time>
      </trkpt>
      <trkpt lat="42.838795" lon="0.141755">
        <ele>2151.1</ele>
        <time>2020-06-21T05:13:10Z</time>
      </trkpt>
      <trkpt lat="42.838798" lon="0.141624">
        <ele>2151.2</ele>
        <time>2020-06-21T05:13:18Z</time>
      </trkpt>
      <trkpt lat="42.838770" lon="0.141495">
        <ele>2151.2</ele>
        <time>2020-06-21T05:13:26Z</time>
      </trkpt>
      <trkpt lat="42.838717" lon="0.141393">
        <ele>2151.2</ele>
        <time>2020-06-21T05:13:34Z</time>
      </trkpt>
      <trkpt lat="42.838667" lon="0.141289">
        <ele>2151.2</ele>
        <time>2020-06-21T05:13:42Z</time>
      </trkpt>
      <trkpt lat="42.838598" lon="0.141208">
        <ele>2151.3</ele>
        <time>2020-06-21T05:13:50Z</time>
      </trkpt>
      <trkpt lat="42.838509" lon="0.141144">
        <ele>2151.3</ele>
        <time>2020-06-21T05:13:59Z</time>
      </trkpt>
      <trkpt lat="42.838425" lon="0.141086">
        <ele>2151.3</ele>
        <time>2020-06-21T05:14:07Z</time>
      </trkpt>
      <trkpt lat="42.838340" lon="0.141026">
        <ele>2151.3</ele>
        <time>2020-06-21T05:14:15Z</time>
      </trkpt>
      <trkpt lat="42.838270" lon="0.140943">
        <ele>2151.3</ele>
        <time>2020-06-21T05:14:23Z</time>
      </trkpt>
      <trkpt lat="42.838215" lon="0.140834">
        <ele>2151.3</ele>
        <time>2020-06-21T05:14:31Z</time>
      </trkpt>
      <trkpt lat="42.838167" lon="0.140710">
        <ele>2151.3</ele>
        <time>2020-06-21T05:14:39Z</time>
      </trkpt>
      <trkpt lat="42.838127" lon="0.140586">
        <ele>2151.3</ele>
        <time>2020-06-21T05:14:47Z</time>
      </trkpt>
      <trkpt lat="42.838086" lon="0.140470">
        <ele>2151.3</ele>
        <time>2020-06-21T05:14:55Z</time>
      </trkpt>
      <trkpt lat="42.838049" lon="0.140348">
        <ele>2151.3</ele>
        <time>2020-06-21T05:15:03Z</time>
      </trkpt>
      <trkpt lat="42.838008" lon="0.140223">
        <ele>2151.3</ele>
        <time>2020-06-21T05:15:12Z</time>
      </trkpt>
      <trkpt lat="42.837968" lon="0.140114">
        <ele>2151.3</ele>
        <time>2020-06-21T05:15:20Z</time>
      </trkpt>
      <trkpt lat="42.837910" lon="0.140024">
        <ele>2151.4</ele>
        <time>2020-06-21T05:15:36Z</time>
      </trkpt>
      <trkpt lat="42.837830" lon="0.140096">
        <ele>2151.4</ele>
        <time>2020-06-21T05:15:47Z</time>
      </trkpt>
      <trkpt lat="42.837750" lon="0.140068">
        <ele>2154.6</ele>
        <time>2020-06-21T05:16:03Z</time>
      </trkpt>
      <trkpt lat="42.837689" lon="0.139987">
        <ele>2156.7</ele>
        <time>2020-06-21T05:16:19Z</time>
      </trkpt>
      <trkpt lat="42.837673" lon="0.139880">
        <ele>2158.3</ele>
        <time>2020-06-21T05:16:33Z</time>
      </trkpt>
      <trkpt lat="42.837671" lon="0.139766">
        <ele>2159.8</ele>
        <time>2020-06-21T05:16:49Z</time>
      </trkpt>
      <trkpt lat="42.837725" lon="0.139699">
        <ele>2160.8</ele>
        <time>2020-06-21T05:17:20Z</time>
      </trkpt>
      <trkpt lat="42.837716" lon="0.139566">
        <ele>2161.7</ele>
        <time>2020-06-21T05:17:31Z</time>
      </trkpt>
      <trkpt lat="42.837648" lon="0.139507">
        <ele>2162.5</ele>
        <time>2020-06-21T05:17:42Z</time>
      </trkpt>
      <trkpt lat="42.837550" lon="0.139531">
        <ele>2163.3</ele>
        <time>2020-06-21T05:17:55Z</time>
      </trkpt>
      <trkpt lat="42.837462" lon="0.139480">
        <ele>2166.3</ele>
        <time>2020-06-21T05:18:06Z</time>
      </trkpt>
      <trkpt lat="42.837372" lon="0.139490">
        <ele>2168.9</ele>
        <time>2020-06-21T05:18:20Z</time>
      </trkpt>
      <trkpt lat="42.837316" lon="0.139589">
        <ele>2168.9</ele>
        <time>2020-06-21T05:18:31Z</time>
      </trkpt>
      <trkpt lat="42.837244" lon="0.139654">
        <ele>2170.6</ele>
        <time>2020-06-21T05:18:44Z</time>
      </trkpt>
      <trkpt lat="42.837169" lon="0.139593">
        <ele>2174.1</ele>
        <time>2020-06-21T05:19:00Z</time>
      </trkpt>
      <trkpt lat="42.837082" lon="0.139553">
        <ele>2176.8</ele>
        <time>2020-06-21T05:19:14Z</time>
      </trkpt>
      <trkpt lat="42.837020" lon="0.139461">
        <ele>2179.3</ele>
        <time>2020-06-21T05:19:27Z</time>
      </trkpt>
      <trkpt lat="42.836948" lon="0.139446">
        <ele>2181.9</ele>
        <time>2020-06-21T05:19:45Z</time>
      </trkpt>
      <trkpt lat="42.836863" lon="0.139458">
        <ele>2184.2</ele>
        <time>2020-06-21T05:20:00Z</time>
      </trkpt>
      <trkpt lat="42.836792" lon="0.139380">
        <ele>2186.2</ele>
        <time>2020-06-21T05:20:15Z</time>
      </trkpt>
      <trkpt lat="42.836722" lon="0.139325">
        <ele>2187.8</ele>
        <time>2020-06-21T05:20:32Z</time>
      </trkpt>
      <trkpt lat="42.836675" lon="0.139211">
        <ele>2190.4</ele>
        <time>2020-06-21T05:20:50Z</time>
      </trkpt>
      <trkpt lat="42.836638" lon="0.139093">
        <ele>2194.4</ele>
        <time>2020-06-21T05:21:07Z</time>
      </trkpt>
      <trkpt lat="42.836633" lon="0.139000">
        <ele>2197.0</ele>
        <time>2020-06-21T05:21:26Z</time>
      </trkpt>
      <trkpt lat="42.836633" lon="0.138973">
        <ele>2198.0</ele>
        <time>2020-06-21T05:23:35Z</time>
      </trkpt>
      <trkpt lat="42.836575" lon="0.138873">
        <ele>2198.1</ele>
        <time>2020-06-21T05:23:46Z</time>
      </trkpt>
      <trkpt lat="42.836479" lon="0.138835">
        <ele>2199.3</ele>
        <time>2020-06-21T05:23:58Z</time>
      </trkpt>
      <trkpt lat="42.836388" lon="0.138811">
        <ele>2201.0</ele>
        <time>2020-06-21T05:24:12Z</time>
      </trkpt>
      <trkpt lat="42.836290" lon="0.138814">
        <ele>2202.5</ele>
        <time>2020-06-21T05:24:27Z</time>
      </trkpt>
      <trkpt lat="42.836189" lon="0.138749">
        <ele>2206.0</ele>
        <time>2020-06-21T05:24:43Z</time>
      </trkpt>
      <trkpt lat="42.836094" lon="0.138679">
        <ele>2207.6</ele>
        <time>2020-06-21T05:24:59Z</time>
      </trkpt>
      <trkpt lat="42.836018" lon="0.138581">
        <ele>2208.4</ele>
        <time>2020-06-21T05:25:13Z</time>
      </trkpt>
      <trkpt lat="42.835927" lon="0.138559">
        <ele>2210.0</ele>
        <time>2020-06-21T05:25:29Z</time>
      </trkpt>
      <trkpt lat="42.835841" lon="0.138523">
        <ele>2212.8</ele>
        <time>2020-06-21T05:25:46Z</time>
      </trkpt>
      <trkpt lat="42.835744" lon="0.138484">
        <ele>2214.4</ele>
        <time>2020-06-21T05:26:02Z</time>
      </trkpt>
      <trkpt lat="42.835661" lon="0.138406">
        <ele>2216.8</ele>
        <time>2020-06-21T05:26:17Z</time>
      </trkpt>
      <trkpt lat="42.835629" lon="0.138268">
        <ele>2218.4</ele>
        <time>2020-06-21T05:26:30Z</time>
      </trkpt>
      <trkpt lat="42.835581" lon="0.138147">
        <ele>2220.7</ele>
        <time>2020-06-21T05:26:45Z</time>
      </trkpt>
      <trkpt lat="42.835540" lon="0.138040">
        <ele>2224.3</ele>
        <time>2020-06-21T05:27:12Z</time>
      </trkpt>
      <trkpt lat="42.835494" lon="0.137944">
        <ele>2227.7</ele>
        <time>2020-06-21T05:27:35Z</time>
      </trkpt>
      <trkpt lat="42.835452" lon="0.137854">
        <ele>2231.2</ele>
        <time>2020-06-21T05:27:56Z</time>
      </trkpt>
      <trkpt lat="42.835482" lon="0.137724">
        <ele>2232.8</ele>
        <time>2020-06-21T05:28:12Z</time>
      </trkpt>
      <trkpt lat="42.835463" lon="0.137628">
        <ele>2236.1</ele>
        <time>2020-06-21T05:28:35Z</time>
      </trkpt>
      <trkpt lat="42.835428" lon="0.137536">
        <ele>2239.5</ele>
        <time>2020-06-21T05:28:57Z</time>
      </trkpt>
      <trkpt lat="42.835444" lon="0.137409">
        <ele>2242.9</ele>
        <time>2020-06-21T05:29:18Z</time>
      </trkpt>
      <trkpt lat="42.835467" lon="0.137288">
        <ele>2246.5</ele>
        <time>2020-06-21T05:29:40Z</time>
      </trkpt>
      <trkpt lat="42.835470" lon="0.137163">
        <ele>2250.6</ele>
        <time>2020-06-21T05:30:06Z</time>
      </trkpt>
      <trkpt lat="42.835484" lon="0.137080">
        <ele>2254.9</ele>
        <time>2020-06-21T05:30:34Z</time>
      </trkpt>
      <trkpt lat="42.835492" lon="0.136984">
        <ele>2258.0</ele>
        <time>2020-06-21T05:30:55Z</time>
      </trkpt>
      <trkpt lat="42.835483" lon="0.136921">
        <ele>2261.3</ele>
        <time>2020-06-21T05:31:35Z</time>
      </trkpt>
      <trkpt lat="42.835529" lon="0.136818">
        <ele>2261.3</ele>
        <time>2020-06-21T05:31:49Z</time>
      </trkpt>
      <trkpt lat="42.835571" lon="0.136718">
        <ele>2261.3</ele>
        <time>2020-06-21T05:32:04Z</time>
      </trkpt>
      <trkpt lat="42.835612" lon="0.136600">
        <ele>2262.2</ele>
        <time>2020-06-21T05:32:19Z</time>
      </trkpt>
      <trkpt lat="42.835697" lon="0.136553">
        <ele>2263.0</ele>
        <time>2020-06-21T05:32:31Z</time>
      </trkpt>
      <trkpt lat="42.835788" lon="0.136544">
        <ele>2263.1</ele>
        <time>2020-06-21T05:32:50Z</time>
      </trkpt>
      <trkpt lat="42.835825" lon="0.136433">
        <ele>2266.7</ele>
        <time>2020-06-21T05:33:10Z</time>
      </trkpt>
      <trkpt lat="42.835841" lon="0.136300">
        <ele>2270.0</ele>
        <time>2020-06-21T05:33:31Z</time>
      </trkpt>
      <trkpt lat="42.835881" lon="0.136182">
        <ele>2274.3</ele>
        <time>2020-06-21T05:33:53Z</time>
      </trkpt>
      <trkpt lat="42.835950" lon="0.136089">
        <ele>2276.7</ele>
        <time>2020-06-21T05:34:12Z</time>
      </trkpt>
      <trkpt lat="42.836039" lon="0.136011">
        <ele>2279.1</ele>
        <time>2020-06-21T05:34:31Z</time>
      </trkpt>
      <trkpt lat="42.836107" lon="0.135952">
        <ele>2283.9</ele>
        <time>2020-06-21T05:35:04Z</time>
      </trkpt>
      <trkpt lat="42.836153" lon="0.135935">
        <ele>2286.9</ele>
        <time>2020-06-21T05:35:31Z</time>
      </trkpt>
      <trkpt lat="42.836234" lon="0.135915">
        <ele>2291.0</ele>
        <time>2020-06-21T05:36:00Z</time>
      </trkpt>
      <trkpt lat="42.836233" lon="0.135893">
        <ele>2296.0</ele>
        <time>2020-06-21T05:36:32Z</time>
      </trkpt>
      <trkpt lat="42.836294" lon="0.135861">
        <ele>2300.2</ele>
        <time>2020-06-21T05:37:05Z</time>
      </trkpt>
      <trkpt lat="42.836360" lon="0.135788">
        <ele>2302.9</ele>
        <time>2020-06-21T05:37:22Z</time>
      </trkpt>
      <trkpt lat="42.836445" lon="0.135732">
        <ele>2304.5</ele>
        <time>2020-06-21T05:37:38Z</time>
      </trkpt>
      <trkpt lat="42.836484" lon="0.135639">
        <ele>2309.4</ele>
        <time>2020-06-21T05:38:16Z</time>
      </trkpt>
      <trkpt lat="42.836503" lon="0.135528">
        <ele>2313.7</ele>
        <time>2020-06-21T05:38:47Z</time>
      </trkpt>
      <trkpt lat="42.836560" lon="0.135467">
        <ele>2316.1</ele>
        <time>2020-06-21T05:39:20Z</time>
      </trkpt>
      <trkpt lat="42.836616" lon="0.135380">
        <ele>2321.1</ele>
        <time>2020-06-21T05:39:56Z</time>
      </trkpt>
      <trkpt lat="42.836638" lon="0.135293">
        <ele>2324.7</ele>
        <time>2020-06-21T05:40:31Z</time>
      </trkpt>
      <trkpt lat="42.836727" lon="0.135261">
        <ele>2328.2</ele>
        <time>2020-06-21T05:41:03Z</time>
      </trkpt>
      <trkpt lat="42.836822" lon="0.135278">
        <ele>2329.0</ele>
        <time>2020-06-21T05:41:32Z</time>
      </trkpt>
      <trkpt lat="42.836882" lon="0.135378">
        <ele>2329.9</ele>
        <time>2020-06-21T05:41:53Z</time>
      </trkpt>
      <trkpt lat="42.836962" lon="0.135425">
        <ele>2330.9</ele>
        <time>2020-06-21T05:42:14Z</time>
      </trkpt>
      <trkpt lat="42.837046" lon="0.135376">
        <ele>2334.8</ele>
        <time>2020-06-21T05:42:44Z</time>
      </trkpt>
      <trkpt lat="42.837104" lon="0.135389">
        <ele>2337.6</ele>
        <time>2020-06-21T05:43:17Z</time>
      </trkpt>
      <trkpt lat="42.837110" lon="0.135274">
        <ele>2341.8</ele>
        <time>2020-06-21T05:43:43Z</time>
      </trkpt>
      <trkpt lat="42.837118" lon="0.135187">
        <ele>2346.2</ele>
        <time>2020-06-21T05:44:16Z</time>
      </trkpt>
      <trkpt lat="42.837150" lon="0.135075">
        <ele>2351.3</ele>
        <time>2020-06-21T05:44:48Z</time>
      </trkpt>
      <trkpt lat="42.837194" lon="0.134974">
        <ele>2353.8</ele>
        <time>2020-06-21T05:45:07Z</time>
      </trkpt>
      <trkpt lat="42.837291" lon="0.134968">
        <ele>2353.7</ele>
        <time>2020-06-21T05:45:20Z</time>
      </trkpt>
      <trkpt lat="42.837367" lon="0.134948">
        <ele>2355.4</ele>
        <time>2020-06-21T05:45:37Z</time>
      </trkpt>
      <trkpt lat="42.837337" lon="0.134849">
        <ele>2360.0</ele>
        <time>2020-06-21T05:46:03Z</time>
      </trkpt>
      <trkpt lat="42.837290" lon="0.134736">
        <ele>2366.2</ele>
        <time>2020-06-21T05:47:03Z</time>
      </trkpt>
      <trkpt lat="42.837364" lon="0.134704">
        <ele>2368.9</ele>
        <time>2020-06-21T05:47:19Z</time>
      </trkpt>
      <trkpt lat="42.837472" lon="0.134675">
        <ele>2370.5</ele>
        <time>2020-06-21T05:47:35Z</time>
      </trkpt>
      <trkpt lat="42.837567" lon="0.134691">
        <ele>2371.3</ele>
        <time>2020-06-21T05:47:50Z</time>
      </trkpt>
      <trkpt lat="42.837643" lon="0.134637">
        <ele>2374.8</ele>
        <time>2020-06-21T05:48:11Z</time>
      </trkpt>
      <trkpt lat="42.837727" lon="0.134695">
        <ele>2375.8</ele>
        <time>2020-06-21T05:48:26Z</time>
      </trkpt>
      <trkpt lat="42.837812" lon="0.134738">
        <ele>2378.2</ele>
        <time>2020-06-21T05:48:48Z</time>
      </trkpt>
      <trkpt lat="42.837895" lon="0.134788">
        <ele>2379.4</ele>
        <time>2020-06-21T05:50:21Z</time>
      </trkpt>
      <trkpt lat="42.837983" lon="0.134746">
        <ele>2381.2</ele>
        <time>2020-06-21T05:50:43Z</time>
      </trkpt>
      <trkpt lat="42.838060" lon="0.134674">
        <ele>2384.5</ele>
        <time>2020-06-21T05:51:04Z</time>
      </trkpt>
      <trkpt lat="42.838149" lon="0.134643">
        <ele>2386.9</ele>
        <time>2020-06-21T05:51:24Z</time>
      </trkpt>
      <trkpt lat="42.838168" lon="0.134578">
        <ele>2389.5</ele>
        <time>2020-06-21T05:51:48Z</time>
      </trkpt>
      <trkpt lat="42.838244" lon="0.134576">
        <ele>2392.3</ele>
        <time>2020-06-21T05:52:08Z</time>
      </trkpt>
      <trkpt lat="42.838279" lon="0.134504">
        <ele>2394.0</ele>
        <time>2020-06-21T05:52:25Z</time>
      </trkpt>
      <trkpt lat="42.838331" lon="0.134429">
        <ele>2396.8</ele>
        <time>2020-06-21T05:52:44Z</time>
      </trkpt>
      <trkpt lat="42.838418" lon="0.134390">
        <ele>2399.2</ele>
        <time>2020-06-21T05:53:02Z</time>
      </trkpt>
      <trkpt lat="42.838486" lon="0.134338">
        <ele>2402.1</ele>
        <time>2020-06-21T05:53:22Z</time>
      </trkpt>
      <trkpt lat="42.838568" lon="0.134347">
        <ele>2402.0</ele>
        <time>2020-06-21T05:53:38Z</time>
      </trkpt>
      <trkpt lat="42.838659" lon="0.134323">
        <ele>2403.0</ele>
        <time>2020-06-21T05:54:01Z</time>
      </trkpt>
      <trkpt lat="42.838724" lon="0.134290">
        <ele>2404.8</ele>
        <time>2020-06-21T05:54:19Z</time>
      </trkpt>
      <trkpt lat="42.838801" lon="0.134239">
        <ele>2406.5</ele>
        <time>2020-06-21T05:54:39Z</time>
      </trkpt>
      <trkpt lat="42.838862" lon="0.134144">
        <ele>2407.4</ele>
        <time>2020-06-21T05:54:55Z</time>
      </trkpt>
      <trkpt lat="42.838821" lon="0.134088">
        <ele>2410.0</ele>
        <time>2020-06-21T05:55:14Z</time>
      </trkpt>
      <trkpt lat="42.838819" lon="0.133976">
        <ele>2414.3</ele>
        <time>2020-06-21T05:55:41Z</time>
      </trkpt>
      <trkpt lat="42.838879" lon="0.133899">
        <ele>2417.7</ele>
        <time>2020-06-21T05:56:06Z</time>
      </trkpt>
      <trkpt lat="42.838991" lon="0.133862">
        <ele>2421.8</ele>
        <time>2020-06-21T05:56:59Z</time>
      </trkpt>
      <trkpt lat="42.839069" lon="0.133806">
        <ele>2424.5</ele>
        <time>2020-06-21T05:57:23Z</time>
      </trkpt>
      <trkpt lat="42.839148" lon="0.133731">
        <ele>2427.1</ele>
        <time>2020-06-21T05:57:41Z</time>
      </trkpt>
      <trkpt lat="42.839210" lon="0.133634">
        <ele>2427.9</ele>
        <time>2020-06-21T05:57:57Z</time>
      </trkpt>
      <trkpt lat="42.839251" lon="0.133542">
        <ele>2428.8</ele>
        <time>2020-06-21T05:58:43Z</time>
      </trkpt>
      <trkpt lat="42.839291" lon="0.133427">
        <ele>2429.6</ele>
        <time>2020-06-21T05:59:10Z</time>
      </trkpt>
      <trkpt lat="42.839300" lon="0.133345">
        <ele>2430.4</ele>
        <time>2020-06-21T05:59:29Z</time>
      </trkpt>
      <trkpt lat="42.839324" lon="0.133275">
        <ele>2431.3</ele>
        <time>2020-06-21T05:59:53Z</time>
      </trkpt>
      <trkpt lat="42.839332" lon="0.133164">
        <ele>2431.3</ele>
        <time>2020-06-21T06:00:14Z</time>
      </trkpt>
      <trkpt lat="42.839331" lon="0.133070">
        <ele>2431.4</ele>
        <time>2020-06-21T06:00:37Z</time>
      </trkpt>
      <trkpt lat="42.839332" lon="0.132972">
        <ele>2432.2</ele>
        <time>2020-06-21T06:01:00Z</time>
      </trkpt>
      <trkpt lat="42.839334" lon="0.132840">
        <ele>2433.4</ele>
        <time>2020-06-21T06:01:19Z</time>
      </trkpt>
      <trkpt lat="42.839366" lon="0.132721">
        <ele>2436.1</ele>
        <time>2020-06-21T06:01:41Z</time>
      </trkpt>
      <trkpt lat="42.839388" lon="0.132619">
        <ele>2436.1</ele>
        <time>2020-06-21T06:02:01Z</time>
      </trkpt>
      <trkpt lat="42.839376" lon="0.132467">
        <ele>2437.7</ele>
        <time>2020-06-21T06:02:25Z</time>
      </trkpt>
      <trkpt lat="42.839354" lon="0.132356">
        <ele>2438.7</ele>
        <time>2020-06-21T06:02:45Z</time>
      </trkpt>
      <trkpt lat="42.839372" lon="0.132360">
        <ele>2438.8</ele>
        <time>2020-06-21T06:03:15Z</time>
      </trkpt>
      <trkpt lat="42.839388" lon="0.132275">
        <ele>2435.0</ele>
        <time>2020-06-21T06:03:42Z</time>
      </trkpt>
      <trkpt lat="42.839427" lon="0.132227">
        <ele>2431.8</ele>
        <time>2020-06-21T06:04:12Z</time>
      </trkpt>
      <trkpt lat="42.839423" lon="0.132100">
        <ele>2431.9</ele>
        <time>2020-06-21T06:04:32Z</time>
      </trkpt>
      <trkpt lat="42.839439" lon="0.132070">
        <ele>2433.8</ele>
        <time>2020-06-21T06:15:46Z</time>
      </trkpt>
      <trkpt lat="42.839382" lon="0.132024">
        <ele>2434.3</ele>
        <time>2020-06-21T06:18:37Z</time>
      </trkpt>
      <trkpt lat="42.839348" lon="0.131910">
        <ele>2436.8</ele>
        <time>2020-06-21T06:18:56Z</time>
      </trkpt>
      <trkpt lat="42.839332" lon="0.131784">
        <ele>2437.8</ele>
        <time>2020-06-21T06:19:16Z</time>
      </trkpt>
      <trkpt lat="42.839311" lon="0.131657">
        <ele>2438.6</ele>
        <time>2020-06-21T06:19:31Z</time>
      </trkpt>
      <trkpt lat="42.839269" lon="0.131535">
        <ele>2439.4</ele>
        <time>2020-06-21T06:19:48Z</time>
      </trkpt>
      <trkpt lat="42.839236" lon="0.131426">
        <ele>2441.2</ele>
        <time>2020-06-21T06:20:11Z</time>
      </trkpt>
      <trkpt lat="42.839167" lon="0.131341">
        <ele>2445.3</ele>
        <time>2020-06-21T06:20:39Z</time>
      </trkpt>
      <trkpt lat="42.839120" lon="0.131236">
        <ele>2447.8</ele>
        <time>2020-06-21T06:21:04Z</time>
      </trkpt>
      <trkpt lat="42.839108" lon="0.131110">
        <ele>2450.1</ele>
        <time>2020-06-21T06:21:25Z</time>
      </trkpt>
      <trkpt lat="42.839086" lon="0.130985">
        <ele>2451.6</ele>
        <time>2020-06-21T06:21:43Z</time>
      </trkpt>
      <trkpt lat="42.839147" lon="0.130895">
        <ele>2453.3</ele>
        <time>2020-06-21T06:22:00Z</time>
      </trkpt>
      <trkpt lat="42.839215" lon="0.130830">
        <ele>2454.1</ele>
        <time>2020-06-21T06:22:15Z</time>
      </trkpt>
      <trkpt lat="42.839258" lon="0.130736">
        <ele>2455.8</ele>
        <time>2020-06-21T06:22:34Z</time>
      </trkpt>
      <trkpt lat="42.839310" lon="0.130647">
        <ele>2458.4</ele>
        <time>2020-06-21T06:22:54Z</time>
      </trkpt>
      <trkpt lat="42.839347" lon="0.130535">
        <ele>2460.1</ele>
        <time>2020-06-21T06:23:18Z</time>
      </trkpt>
      <trkpt lat="42.839390" lon="0.130423">
        <ele>2464.3</ele>
        <time>2020-06-21T06:23:41Z</time>
      </trkpt>
      <trkpt lat="42.839448" lon="0.130325">
        <ele>2465.9</ele>
        <time>2020-06-21T06:24:05Z</time>
      </trkpt>
      <trkpt lat="42.839471" lon="0.130210">
        <ele>2469.4</ele>
        <time>2020-06-21T06:24:29Z</time>
      </trkpt>
      <trkpt lat="42.839469" lon="0.130097">
        <ele>2472.1</ele>
        <time>2020-06-21T06:24:53Z</time>
      </trkpt>
      <trkpt lat="42.839457" lon="0.129974">
        <ele>2475.0</ele>
        <time>2020-06-21T06:25:16Z</time>
      </trkpt>
      <trkpt lat="42.839455" lon="0.129849">
        <ele>2478.6</ele>
        <time>2020-06-21T06:25:41Z</time>
      </trkpt>
      <trkpt lat="42.839447" lon="0.129732">
        <ele>2481.7</ele>
        <time>2020-06-21T06:26:05Z</time>
      </trkpt>
      <trkpt lat="42.839422" lon="0.129654">
        <ele>2483.6</ele>
        <time>2020-06-21T06:26:42Z</time>
      </trkpt>
      <trkpt lat="42.839409" lon="0.129532">
        <ele>2487.6</ele>
        <time>2020-06-21T06:27:08Z</time>
      </trkpt>
      <trkpt lat="42.839378" lon="0.129420">
        <ele>2491.1</ele>
        <time>2020-06-21T06:27:37Z</time>
      </trkpt>
      <trkpt lat="42.839369" lon="0.129300">
        <ele>2494.6</ele>
        <time>2020-06-21T06:28:00Z</time>
      </trkpt>
      <trkpt lat="42.839368" lon="0.129179">
        <ele>2498.2</ele>
        <time>2020-06-21T06:28:51Z</time>
      </trkpt>
      <trkpt lat="42.839364" lon="0.129052">
        <ele>2501.4</ele>
        <time>2020-06-21T06:29:20Z</time>
      </trkpt>
      <trkpt lat="42.839370" lon="0.128927">
        <ele>2504.1</ele>
        <time>2020-06-21T06:30:12Z</time>
      </trkpt>
      <trkpt lat="42.839357" lon="0.128806">
        <ele>2506.4</ele>
        <time>2020-06-21T06:30:41Z</time>
      </trkpt>
      <trkpt lat="42.839361" lon="0.128686">
        <ele>2508.4</ele>
        <time>2020-06-21T06:31:11Z</time>
      </trkpt>
      <trkpt lat="42.839392" lon="0.128562">
        <ele>2510.3</ele>
        <time>2020-06-21T06:31:31Z</time>
      </trkpt>
      <trkpt lat="42.839378" lon="0.128440">
        <ele>2513.8</ele>
        <time>2020-06-21T06:31:56Z</time>
      </trkpt>
      <trkpt lat="42.839330" lon="0.128339">
        <ele>2517.0</ele>
        <time>2020-06-21T06:32:26Z</time>
      </trkpt>
      <trkpt lat="42.839294" lon="0.128224">
        <ele>2519.9</ele>
        <time>2020-06-21T06:32:54Z</time>
      </trkpt>
      <trkpt lat="42.839250" lon="0.128121">
        <ele>2524.1</ele>
        <time>2020-06-21T06:33:25Z</time>
      </trkpt>
      <trkpt lat="42.839216" lon="0.128008">
        <ele>2527.8</ele>
        <time>2020-06-21T06:33:59Z</time>
      </trkpt>
      <trkpt lat="42.839139" lon="0.127940">
        <ele>2532.9</ele>
        <time>2020-06-21T06:34:37Z</time>
      </trkpt>
      <trkpt lat="42.839069" lon="0.127849">
        <ele>2537.8</ele>
        <time>2020-06-21T06:35:23Z</time>
      </trkpt>
      <trkpt lat="42.839004" lon="0.127756">
        <ele>2541.9</ele>
        <time>2020-06-21T06:36:03Z</time>
      </trkpt>
      <trkpt lat="42.838959" lon="0.127650">
        <ele>2546.2</ele>
        <time>2020-06-21T06:36:46Z</time>
      </trkpt>
      <trkpt lat="42.838923" lon="0.127514">
        <ele>2551.1</ele>
        <time>2020-06-21T06:37:37Z</time>
      </trkpt>
      <trkpt lat="42.838912" lon="0.127382">
        <ele>2554.5</ele>
        <time>2020-06-21T06:38:14Z</time>
      </trkpt>
      <trkpt lat="42.838938" lon="0.127261">
        <ele>2555.5</ele>
        <time>2020-06-21T06:39:23Z</time>
      </trkpt>
      <trkpt lat="42.838952" lon="0.127150">
        <ele>2557.1</ele>
        <time>2020-06-21T06:39:46Z</time>
      </trkpt>
      <trkpt lat="42.838920" lon="0.127039">
        <ele>2562.2</ele>
        <time>2020-06-21T06:40:22Z</time>
      </trkpt>
      <trkpt lat="42.838884" lon="0.126932">
        <ele>2566.3</ele>
        <time>2020-06-21T06:40:55Z</time>
      </trkpt>
      <trkpt lat="42.838888" lon="0.126817">
        <ele>2568.8</ele>
        <time>2020-06-21T06:41:24Z</time>
      </trkpt>
      <trkpt lat="42.838884" lon="0.126677">
        <ele>2573.4</ele>
        <time>2020-06-21T06:42:06Z</time>
      </trkpt>
      <trkpt lat="42.838879" lon="0.126550">
        <ele>2576.8</ele>
        <time>2020-06-21T06:42:32Z</time>
      </trkpt>
      <trkpt lat="42.838893" lon="0.126432">
        <ele>2579.3</ele>
        <time>2020-06-21T06:43:03Z</time>
      </trkpt>
      <trkpt lat="42.838900" lon="0.126301">
        <ele>2583.5</ele>
        <time>2020-06-21T06:43:39Z</time>
      </trkpt>
      <trkpt lat="42.838840" lon="0.126174">
        <ele>2590.0</ele>
        <time>2020-06-21T06:44:31Z</time>
      </trkpt>
      <trkpt lat="42.838788" lon="0.126061">
        <ele>2594.5</ele>
        <time>2020-06-21T06:45:14Z</time>
      </trkpt>
      <trkpt lat="42.838781" lon="0.126008">
        <ele>2596.4</ele>
        <time>2020-06-21T06:46:06Z</time>
      </trkpt>
      <trkpt lat="42.838697" lon="0.125915">
        <ele>2598.0</ele>
        <time>2020-06-21T06:46:21Z</time>
      </trkpt>
      <trkpt lat="42.838614" lon="0.125849">
        <ele>2601.5</ele>
        <time>2020-06-21T06:46:43Z</time>
      </trkpt>
      <trkpt lat="42.838575" lon="0.125730">
        <ele>2606.8</ele>
        <time>2020-06-21T06:47:17Z</time>
      </trkpt>
      <trkpt lat="42.838538" lon="0.125597">
        <ele>2613.1</ele>
        <time>2020-06-21T06:48:05Z</time>
      </trkpt>
      <trkpt lat="42.838483" lon="0.125487">
        <ele>2619.3</ele>
        <time>2020-06-21T06:48:43Z</time>
      </trkpt>
      <trkpt lat="42.838450" lon="0.125349">
        <ele>2624.8</ele>
        <time>2020-06-21T06:49:29Z</time>
      </trkpt>
      <trkpt lat="42.838422" lon="0.125235">
        <ele>2629.2</ele>
        <time>2020-06-21T06:49:58Z</time>
      </trkpt>
      <trkpt lat="42.838382" lon="0.125126">
        <ele>2631.9</ele>
        <time>2020-06-21T06:50:21Z</time>
      </trkpt>
      <trkpt lat="42.838349" lon="0.125014">
        <ele>2633.0</ele>
        <time>2020-06-21T06:50:43Z</time>
      </trkpt>
      <trkpt lat="42.838308" lon="0.124902">
        <ele>2639.6</ele>
        <time>2020-06-21T06:51:20Z</time>
      </trkpt>
      <trkpt lat="42.838256" lon="0.124807">
        <ele>2643.1</ele>
        <time>2020-06-21T06:51:47Z</time>
      </trkpt>
      <trkpt lat="42.838212" lon="0.124707">
        <ele>2648.1</ele>
        <time>2020-06-21T06:52:23Z</time>
      </trkpt>
      <trkpt lat="42.838176" lon="0.124609">
        <ele>2651.7</ele>
        <time>2020-06-21T06:52:54Z</time>
      </trkpt>
      <trkpt lat="42.838163" lon="0.124503">
        <ele>2655.0</ele>
        <time>2020-06-21T06:53:20Z</time>
      </trkpt>
      <trkpt lat="42.838112" lon="0.124392">
        <ele>2660.6</ele>
        <time>2020-06-21T06:54:01Z</time>
      </trkpt>
      <trkpt lat="42.838019" lon="0.124348">
        <ele>2667.4</ele>
        <time>2020-06-21T06:54:45Z</time>
      </trkpt>
      <trkpt lat="42.837968" lon="0.124230">
        <ele>2672.3</ele>
        <time>2020-06-21T06:55:23Z</time>
      </trkpt>
      <trkpt lat="42.837924" lon="0.124106">
        <ele>2677.6</ele>
        <time>2020-06-21T06:56:03Z</time>
      </trkpt>
      <trkpt lat="42.837879" lon="0.124011">
        <ele>2680.2</ele>
        <time>2020-06-21T06:56:32Z</time>
      </trkpt>
      <trkpt lat="42.837874" lon="0.123890">
        <ele>2682.4</ele>
        <time>2020-06-21T06:57:32Z</time>
      </trkpt>
      <trkpt lat="42.837856" lon="0.123771">
        <ele>2688.1</ele>
        <time>2020-06-21T06:57:57Z</time>
      </trkpt>
      <trkpt lat="42.837833" lon="0.123656">
        <ele>2691.6</ele>
        <time>2020-06-21T06:58:20Z</time>
      </trkpt>
      <trkpt lat="42.837793" lon="0.123543">
        <ele>2694.3</ele>
        <time>2020-06-21T06:58:40Z</time>
      </trkpt>
      <trkpt lat="42.837751" lon="0.123428">
        <ele>2697.6</ele>
        <time>2020-06-21T06:59:02Z</time>
      </trkpt>
      <trkpt lat="42.837732" lon="0.123315">
        <ele>2700.3</ele>
        <time>2020-06-21T06:59:26Z</time>
      </trkpt>
      <trkpt lat="42.837705" lon="0.123207">
        <ele>2703.6</ele>
        <time>2020-06-21T06:59:48Z</time>
      </trkpt>
      <trkpt lat="42.837652" lon="0.123100">
        <ele>2706.2</ele>
        <time>2020-06-21T07:00:11Z</time>
      </trkpt>
      <trkpt lat="42.837609" lon="0.122965">
        <ele>2709.2</ele>
        <time>2020-06-21T07:00:36Z</time>
      </trkpt>
      <trkpt lat="42.837561" lon="0.122862">
        <ele>2711.8</ele>
        <time>2020-06-21T07:00:59Z</time>
      </trkpt>
      <trkpt lat="42.837533" lon="0.122744">
        <ele>2714.3</ele>
        <time>2020-06-21T07:01:29Z</time>
      </trkpt>
      <trkpt lat="42.837504" lon="0.122627">
        <ele>2718.5</ele>
        <time>2020-06-21T07:01:58Z</time>
      </trkpt>
      <trkpt lat="42.837482" lon="0.122533">
        <ele>2721.2</ele>
        <time>2020-06-21T07:02:52Z</time>
      </trkpt>
      <trkpt lat="42.837439" lon="0.122420">
        <ele>2726.6</ele>
        <time>2020-06-21T07:03:22Z</time>
      </trkpt>
      <trkpt lat="42.837396" lon="0.122307">
        <ele>2727.9</ele>
        <time>2020-06-21T07:03:50Z</time>
      </trkpt>
      <trkpt lat="42.837379" lon="0.122193">
        <ele>2731.4</ele>
        <time>2020-06-21T07:04:18Z</time>
      </trkpt>
      <trkpt lat="42.837357" lon="0.122068">
        <ele>2734.7</ele>
        <time>2020-06-21T07:04:49Z</time>
      </trkpt>
      <trkpt lat="42.837350" lon="0.121970">
        <ele>2735.8</ele>
        <time>2020-06-21T07:05:44Z</time>
      </trkpt>
      <trkpt lat="42.837331" lon="0.121852">
        <ele>2740.7</ele>
        <time>2020-06-21T07:06:29Z</time>
      </trkpt>
      <trkpt lat="42.837312" lon="0.121726">
        <ele>2745.1</ele>
        <time>2020-06-21T07:07:01Z</time>
      </trkpt>
      <trkpt lat="42.837292" lon="0.121584">
        <ele>2751.4</ele>
        <time>2020-06-21T07:07:46Z</time>
      </trkpt>
      <trkpt lat="42.837241" lon="0.121463">
        <ele>2757.3</ele>
        <time>2020-06-21T07:08:27Z</time>
      </trkpt>
      <trkpt lat="42.837202" lon="0.121354">
        <ele>2761.7</ele>
        <time>2020-06-21T07:09:02Z</time>
      </trkpt>
      <trkpt lat="42.837168" lon="0.121223">
        <ele>2766.6</ele>
        <time>2020-06-21T07:09:42Z</time>
      </trkpt>
      <trkpt lat="42.837121" lon="0.121110">
        <ele>2771.8</ele>
        <time>2020-06-21T07:10:22Z</time>
      </trkpt>
      <trkpt lat="42.837085" lon="0.120998">
        <ele>2776.2</ele>
        <time>2020-06-21T07:10:56Z</time>
      </trkpt>
      <trkpt lat="42.837057" lon="0.120866">
        <ele>2781.4</ele>
        <time>2020-06-21T07:11:32Z</time>
      </trkpt>
      <trkpt lat="42.837023" lon="0.120737">
        <ele>2785.3</ele>
        <time>2020-06-21T07:12:09Z</time>
      </trkpt>
      <trkpt lat="42.836980" lon="0.120619">
        <ele>2789.9</ele>
        <time>2020-06-21T07:12:42Z</time>
      </trkpt>
      <trkpt lat="42.836960" lon="0.120516">
        <ele>2793.3</ele>
        <time>2020-06-21T07:13:10Z</time>
      </trkpt>
      <trkpt lat="42.836950" lon="0.120425">
        <ele>2797.5</ele>
        <time>2020-06-21T07:13:42Z</time>
      </trkpt>
      <trkpt lat="42.836910" lon="0.120314">
        <ele>2800.8</ele>
        <time>2020-06-21T07:14:08Z</time>
      </trkpt>
      <trkpt lat="42.836866" lon="0.120215">
        <ele>2804.0</ele>
        <time>2020-06-21T07:14:35Z</time>
      </trkpt>
      <trkpt lat="42.836817" lon="0.120111">
        <ele>2807.6</ele>
        <time>2020-06-21T07:15:07Z</time>
      </trkpt>
      <trkpt lat="42.836774" lon="0.120006">
        <ele>2811.0</ele>
        <time>2020-06-21T07:15:35Z</time>
      </trkpt>
      <trkpt lat="42.836723" lon="0.119909">
        <ele>2814.7</ele>
        <time>2020-06-21T07:16:05Z</time>
      </trkpt>
      <trkpt lat="42.836666" lon="0.119815">
        <ele>2817.6</ele>
        <time>2020-06-21T07:16:33Z</time>
      </trkpt>
      <trkpt lat="42.836632" lon="0.119707">
        <ele>2821.9</ele>
        <time>2020-06-21T07:17:04Z</time>
      </trkpt>
      <trkpt lat="42.836600" lon="0.119593">
        <ele>2825.4</ele>
        <time>2020-06-21T07:17:30Z</time>
      </trkpt>
      <trkpt lat="42.836527" lon="0.119519">
        <ele>2826.3</ele>
        <time>2020-06-21T07:17:55Z</time>
      </trkpt>
      <trkpt lat="42.836470" lon="0.119448">
        <ele>2830.9</ele>
        <time>2020-06-21T07:18:47Z</time>
      </trkpt>
      <trkpt lat="42.836487" lon="0.119451">
        <ele>2829.9</ele>
        <time>2020-06-21T07:23:13Z</time>
      </trkpt>
      <trkpt lat="42.836420" lon="0.119385">
        <ele>2830.1</ele>
        <time>2020-06-21T07:23:56Z</time>
      </trkpt>
      <trkpt lat="42.836324" lon="0.119311">
        <ele>2833.3</ele>
        <time>2020-06-21T07:24:14Z</time>
      </trkpt>
      <trkpt lat="42.836284" lon="0.119215">
        <ele>2835.9</ele>
        <time>2020-06-21T07:24:31Z</time>
      </trkpt>
      <trkpt lat="42.836244" lon="0.119122">
        <ele>2839.8</ele>
        <time>2020-06-21T07:24:55Z</time>
      </trkpt>
      <trkpt lat="42.836174" lon="0.119057">
        <ele>2844.3</ele>
        <time>2020-06-21T07:25:23Z</time>
      </trkpt>
      <trkpt lat="42.836109" lon="0.118978">
        <ele>2848.4</ele>
        <time>2020-06-21T07:25:51Z</time>
      </trkpt>
      <trkpt lat="42.836010" lon="0.118965">
        <ele>2851.0</ele>
        <time>2020-06-21T07:26:19Z</time>
      </trkpt>
      <trkpt lat="42.835912" lon="0.118891">
        <ele>2858.6</ele>
        <time>2020-06-21T07:27:26Z</time>
      </trkpt>
      <trkpt lat="42.835840" lon="0.118854">
        <ele>2861.3</ele>
        <time>2020-06-21T07:27:59Z</time>
      </trkpt>
      <trkpt lat="42.835752" lon="0.118855">
        <ele>2863.3</ele>
        <time>2020-06-21T07:28:43Z</time>
      </trkpt>
      <trkpt lat="42.835643" lon="0.118856">
        <ele>2864.1</ele>
        <time>2020-06-21T07:29:03Z</time>
      </trkpt>
      <trkpt lat="42.835611" lon="0.118860">
        <ele>2864.4</ele>
        <time>2020-06-21T07:30:59Z</time>
      </trkpt>
      <trkpt lat="42.835478" lon="0.118865">
        <ele>2866.8</ele>
        <time>2020-06-21T07:31:17Z</time>
      </trkpt>
      <trkpt lat="42.835374" lon="0.118875">
        <ele>2869.9</ele>
        <time>2020-06-21T07:31:40Z</time>
      </trkpt>
      <trkpt lat="42.835299" lon="0.118911">
        <ele>2872.5</ele>
        <time>2020-06-21T07:32:03Z</time>
      </trkpt>
      <trkpt lat="42.835213" lon="0.118937">
        <ele>2877.1</ele>
        <time>2020-06-21T07:32:30Z</time>
      </trkpt>
      <trkpt lat="42.835164" lon="0.118921">
        <ele>2877.2</ele>
        <time>2020-06-21T07:38:20Z</time>
      </trkpt>
      <trkpt lat="42.835114" lon="0.118971">
        <ele>2880.8</ele>
        <time>2020-06-21T07:41:29Z</time>
      </trkpt>
      <trkpt lat="42.835049" lon="0.118989">
        <ele>2882.0</ele>
        <time>2020-06-21T07:42:39Z</time>
      </trkpt>
      <trkpt lat="42.834944" lon="0.119026">
        <ele>2887.9</ele>
        <time>2020-06-21T07:43:33Z</time>
      </trkpt>
      <trkpt lat="42.834847" lon="0.119068">
        <ele>2893.2</ele>
        <time>2020-06-21T07:44:18Z</time>
      </trkpt>
      <trkpt lat="42.834781" lon="0.119096">
        <ele>2898.6</ele>
        <time>2020-06-21T07:45:52Z</time>
      </trkpt>
      <trkpt lat="42.834761" lon="0.119126">
        <ele>2906.2</ele>
        <time>2020-06-21T07:47:58Z</time>
      </trkpt>
      <trkpt lat="42.834694" lon="0.119151">
        <ele>2911.6</ele>
        <time>2020-06-21T07:48:55Z</time>
      </trkpt>
      <trkpt lat="42.834693" lon="0.119168">
        <ele>2916.8</ele>
        <time>2020-06-21T07:50:04Z</time>
      </trkpt>
      <trkpt lat="42.834658" lon="0.119186">
        <ele>2920.4</ele>
        <time>2020-06-21T07:50:53Z</time>
      </trkpt>
      <trkpt lat="42.834652" lon="0.119221">
        <ele>2922.0</ele>
        <time>2020-06-21T07:51:37Z</time>
      </trkpt>
      <trkpt lat="42.834642" lon="0.119227">
        <ele>2930.7</ele>
        <time>2020-06-21T07:53:57Z</time>
      </trkpt>
      <trkpt lat="42.834594" lon="0.119265">
        <ele>2934.1</ele>
        <time>2020-06-21T07:54:37Z</time>
      </trkpt>
      <trkpt lat="42.834572" lon="0.119272">
        <ele>2936.9</ele>
        <time>2020-06-21T07:55:15Z</time>
      </trkpt>
      <trkpt lat="42.834582" lon="0.119332">
        <ele>2940.4</ele>
        <time>2020-06-21T07:56:01Z</time>
      </trkpt>
      <trkpt lat="42.834549" lon="0.119377">
        <ele>2942.2</ele>
        <time>2020-06-21T07:56:33Z</time>
      </trkpt>
      <trkpt lat="42.834572" lon="0.119425">
        <ele>2956.1</ele>
        <time>2020-06-21T08:08:22Z</time>
      </trkpt>
      <trkpt lat="42.834576" lon="0.119436">
        <ele>2953.9</ele>
        <time>2020-06-21T08:12:06Z</time>
      </trkpt>
      <trkpt lat="42.834581" lon="0.119454">
        <ele>2952.5</ele>
        <time>2020-06-21T08:12:45Z</time>
      </trkpt>
      <trkpt lat="42.834613" lon="0.119551">
        <ele>2966.4</ele>
        <time>2020-06-21T08:26:04Z</time>
      </trkpt>
      <trkpt lat="42.834625" lon="0.119615">
        <ele>2971.0</ele>
        <time>2020-06-21T08:28:29Z</time>
      </trkpt>
      <trkpt lat="42.834634" lon="0.119671">
        <ele>2973.7</ele>
        <time>2020-06-21T08:29:30Z</time>
      </trkpt>
      <trkpt lat="42.834632" lon="0.119718">
        <ele>2976.6</ele>
        <time>2020-06-21T08:30:10Z</time>
      </trkpt>
      <trkpt lat="42.834671" lon="0.119734">
        <ele>2979.1</ele>
        <time>2020-06-21T08:30:39Z</time>
      </trkpt>
      <trkpt lat="42.834682" lon="0.119774">
        <ele>2982.7</ele>
        <time>2020-06-21T08:31:23Z</time>
      </trkpt>
      <trkpt lat="42.834677" lon="0.119797">
        <ele>2984.8</ele>
        <time>2020-06-21T08:35:51Z</time>
      </trkpt>
      <trkpt lat="42.834678" lon="0.119803">
        <ele>2999.5</ele>
        <time>2020-06-21T08:47:28Z</time>
      </trkpt>
      <trkpt lat="42.834730" lon="0.119895">
        <ele>3001.6</ele>
        <time>2020-06-21T08:48:33Z</time>
      </trkpt>
      <trkpt lat="42.834787" lon="0.119994">
        <ele>3008.5</ele>
        <time>2020-06-21T08:50:21Z</time>
      </trkpt>
      <trkpt lat="42.834774" lon="0.120001">
        <ele>3008.1</ele>
        <time>2020-06-21T09:08:22Z</time>
      </trkpt>
      <trkpt lat="42.834751" lon="0.119906">
        <ele>3004.1</ele>
        <time>2020-06-21T09:10:47Z</time>
      </trkpt>
      <trkpt lat="42.834691" lon="0.119805">
        <ele>2999.9</ele>
        <time>2020-06-21T09:11:51Z</time>
      </trkpt>
      <trkpt lat="42.834680" lon="0.119782">
        <ele>2994.9</ele>
        <time>2020-06-21T09:20:30Z</time>
      </trkpt>
      <trkpt lat="42.834658" lon="0.119693">
        <ele>2987.4</ele>
        <time>2020-06-21T09:22:01Z</time>
      </trkpt>
      <trkpt lat="42.834613" lon="0.119713">
        <ele>2985.0</ele>
        <time>2020-06-21T09:23:54Z</time>
      </trkpt>
      <trkpt lat="42.834607" lon="0.119610">
        <ele>2981.7</ele>
        <time>2020-06-21T09:24:42Z</time>
      </trkpt>
      <trkpt lat="42.834617" lon="0.119575">
        <ele>2978.5</ele>
        <time>2020-06-21T09:26:41Z</time>
      </trkpt>
      <trkpt lat="42.834604" lon="0.119546">
        <ele>2974.1</ele>
        <time>2020-06-21T09:29:31Z</time>
      </trkpt>
      <trkpt lat="42.834617" lon="0.119533">
        <ele>2972.8</ele>
        <time>2020-06-21T09:33:06Z</time>
      </trkpt>
      <trkpt lat="42.834571" lon="0.119433">
        <ele>2969.6</ele>
        <time>2020-06-21T09:34:29Z</time>
      </trkpt>
      <trkpt lat="42.834521" lon="0.119341">
        <ele>2963.9</ele>
        <time>2020-06-21T09:42:49Z</time>
      </trkpt>
      <trkpt lat="42.834505" lon="0.119321">
        <ele>2963.0</ele>
        <time>2020-06-21T09:44:57Z</time>
      </trkpt>
      <trkpt lat="42.834489" lon="0.119229">
        <ele>2968.3</ele>
        <time>2020-06-21T09:47:00Z</time>
      </trkpt>
      <trkpt lat="42.834494" lon="0.119156">
        <ele>2966.2</ele>
        <time>2020-06-21T09:50:20Z</time>
      </trkpt>
      <trkpt lat="42.834461" lon="0.119032">
        <ele>2959.8</ele>
        <time>2020-06-21T09:53:37Z</time>
      </trkpt>
      <trkpt lat="42.834461" lon="0.118985">
        <ele>2963.4</ele>
        <time>2020-06-21T09:58:06Z</time>
      </trkpt>
      <trkpt lat="42.834483" lon="0.118920">
        <ele>2967.3</ele>
        <time>2020-06-21T09:59:30Z</time>
      </trkpt>
      <trkpt lat="42.834510" lon="0.118795">
        <ele>2966.6</ele>
        <time>2020-06-21T10:02:48Z</time>
      </trkpt>
      <trkpt lat="42.834518" lon="0.118729">
        <ele>2965.0</ele>
        <time>2020-06-21T10:05:07Z</time>
      </trkpt>
      <trkpt lat="42.834522" lon="0.118598">
        <ele>2965.1</ele>
        <time>2020-06-21T10:05:31Z</time>
      </trkpt>
      <trkpt lat="42.834507" lon="0.118487">
        <ele>2965.0</ele>
        <time>2020-06-21T10:06:06Z</time>
      </trkpt>
      <trkpt lat="42.834538" lon="0.118363">
        <ele>2970.0</ele>
        <time>2020-06-21T10:07:24Z</time>
      </trkpt>
      <trkpt lat="42.834540" lon="0.118236">
        <ele>2969.8</ele>
        <time>2020-06-21T10:09:22Z</time>
      </trkpt>
      <trkpt lat="42.834514" lon="0.118101">
        <ele>2965.3</ele>
        <time>2020-06-21T10:10:45Z</time>
      </trkpt>
      <trkpt lat="42.834496" lon="0.118033">
        <ele>2966.4</ele>
        <time>2020-06-21T10:14:07Z</time>
      </trkpt>
      <trkpt lat="42.834516" lon="0.117893">
        <ele>2960.9</ele>
        <time>2020-06-21T10:15:38Z</time>
      </trkpt>
      <trkpt lat="42.834527" lon="0.117743">
        <ele>2960.8</ele>
        <time>2020-06-21T10:16:41Z</time>
      </trkpt>
      <trkpt lat="42.834522" lon="0.117610">
        <ele>2963.0</ele>
        <time>2020-06-21T10:17:33Z</time>
      </trkpt>
      <trkpt lat="42.834544" lon="0.117501">
        <ele>2963.7</ele>
        <time>2020-06-21T10:18:18Z</time>
      </trkpt>
      <trkpt lat="42.834554" lon="0.117422">
        <ele>2960.1</ele>
        <time>2020-06-21T10:19:18Z</time>
      </trkpt>
      <trkpt lat="42.834587" lon="0.117313">
        <ele>2955.6</ele>
        <time>2020-06-21T10:20:06Z</time>
      </trkpt>
      <trkpt lat="42.834572" lon="0.117195">
        <ele>2958.6</ele>
        <time>2020-06-21T10:21:50Z</time>
      </trkpt>
      <trkpt lat="42.834539" lon="0.117102">
        <ele>2963.4</ele>
        <time>2020-06-21T10:22:42Z</time>
      </trkpt>
      <trkpt lat="42.834517" lon="0.116998">
        <ele>2968.0</ele>
        <time>2020-06-21T10:23:45Z</time>
      </trkpt>
      <trkpt lat="42.834563" lon="0.116951">
        <ele>2969.3</ele>
        <time>2020-06-21T10:25:18Z</time>
      </trkpt>
      <trkpt lat="42.834604" lon="0.116872">
        <ele>2966.8</ele>
        <time>2020-06-21T10:28:43Z</time>
      </trkpt>
      <trkpt lat="42.834637" lon="0.116790">
        <ele>2966.9</ele>
        <time>2020-06-21T10:29:18Z</time>
      </trkpt>
      <trkpt lat="42.834668" lon="0.116674">
        <ele>2969.2</ele>
        <time>2020-06-21T10:30:48Z</time>
      </trkpt>
      <trkpt lat="42.834675" lon="0.116619">
        <ele>2971.8</ele>
        <time>2020-06-21T10:32:24Z</time>
      </trkpt>
      <trkpt lat="42.834633" lon="0.116537">
        <ele>2975.3</ele>
        <time>2020-06-21T10:33:09Z</time>
      </trkpt>
      <trkpt lat="42.834619" lon="0.116449">
        <ele>2981.8</ele>
        <time>2020-06-21T10:34:48Z</time>
      </trkpt>
      <trkpt lat="42.834603" lon="0.116358">
        <ele>2988.5</ele>
        <time>2020-06-21T10:36:07Z</time>
      </trkpt>
      <trkpt lat="42.834607" lon="0.116312">
        <ele>2993.7</ele>
        <time>2020-06-21T10:37:21Z</time>
      </trkpt>
      <trkpt lat="42.834551" lon="0.116338">
        <ele>2994.5</ele>
        <time>2020-06-21T10:38:22Z</time>
      </trkpt>
      <trkpt lat="42.834554" lon="0.116243">
        <ele>3000.6</ele>
        <time>2020-06-21T10:39:24Z</time>
      </trkpt>
      <trkpt lat="42.834520" lon="0.116181">
        <ele>3008.2</ele>
        <time>2020-06-21T10:40:39Z</time>
      </trkpt>
      <trkpt lat="42.834507" lon="0.116154">
        <ele>3019.4</ele>
        <time>2020-06-21T10:51:57Z</time>
      </trkpt>
      <trkpt lat="42.834477" lon="0.116087">
        <ele>3022.9</ele>
        <time>2020-06-21T10:52:30Z</time>
      </trkpt>
      <trkpt lat="42.834462" lon="0.116002">
        <ele>3028.6</ele>
        <time>2020-06-21T10:54:03Z</time>
      </trkpt>
      <trkpt lat="42.834465" lon="0.115959">
        <ele>3033.6</ele>
        <time>2020-06-21T10:54:56Z</time>
      </trkpt>
      <trkpt lat="42.834458" lon="0.115919">
        <ele>3038.3</ele>
        <time>2020-06-21T10:56:10Z</time>
      </trkpt>
      <trkpt lat="42.834516" lon="0.115874">
        <ele>3043.3</ele>
        <time>2020-06-21T10:57:23Z</time>
      </trkpt>
      <trkpt lat="42.834570" lon="0.115748">
        <ele>3048.9</ele>
        <time>2020-06-21T10:58:36Z</time>
      </trkpt>
      <trkpt lat="42.834608" lon="0.115727">
        <ele>3053.2</ele>
        <time>2020-06-21T10:59:55Z</time>
      </trkpt>
      <trkpt lat="42.834634" lon="0.115688">
        <ele>3056.6</ele>
        <time>2020-06-21T11:01:01Z</time>
      </trkpt>
      <trkpt lat="42.834676" lon="0.115597">
        <ele>3063.7</ele>
        <time>2020-06-21T11:02:58Z</time>
      </trkpt>
      <trkpt lat="42.834725" lon="0.115484">
        <ele>3067.9</ele>
        <time>2020-06-21T11:04:54Z</time>
      </trkpt>
      <trkpt lat="42.834720" lon="0.115503">
        <ele>3071.4</ele>
        <time>2020-06-21T11:06:22Z</time>
      </trkpt>
      <trkpt lat="42.834767" lon="0.115379">
        <ele>3080.7</ele>
        <time>2020-06-21T11:08:59Z</time>
      </trkpt>
      <trkpt lat="42.834864" lon="0.115401">
        <ele>3079.6</ele>
        <time>2020-06-21T11:10:47Z</time>
      </trkpt>
      <trkpt lat="42.834959" lon="0.115424">
        <ele>3078.3</ele>
        <time>2020-06-21T11:12:43Z</time>
      </trkpt>
      <trkpt lat="42.835043" lon="0.115397">
        <ele>3078.4</ele>
        <time>2020-06-21T11:13:36Z</time>
      </trkpt>
      <trkpt lat="42.835127" lon="0.115341">
        <ele>3077.0</ele>
        <time>2020-06-21T11:14:28Z</time>
      </trkpt>
      <trkpt lat="42.835200" lon="0.115309">
        <ele>3080.5</ele>
        <time>2020-06-21T11:15:19Z</time>
      </trkpt>
      <trkpt lat="42.835287" lon="0.115175">
        <ele>3080.8</ele>
        <time>2020-06-21T11:17:05Z</time>
      </trkpt>
      <trkpt lat="42.835347" lon="0.115163">
        <ele>3081.9</ele>
        <time>2020-06-21T11:18:17Z</time>
      </trkpt>
      <trkpt lat="42.835394" lon="0.115129">
        <ele>3084.6</ele>
        <time>2020-06-21T11:19:25Z</time>
      </trkpt>
      <trkpt lat="42.835416" lon="0.115083">
        <ele>3086.6</ele>
        <time>2020-06-21T12:42:35Z</time>
      </trkpt>
      <trkpt lat="42.835400" lon="0.115047">
        <ele>3087.0</ele>
        <time>2020-06-21T13:02:20Z</time>
      </trkpt>
      <trkpt lat="42.835401" lon="0.115029">
        <ele>3087.8</ele>
        <time>2020-06-21T13:22:52Z</time>
      </trkpt>
      <trkpt lat="42.835409" lon="0.114936">
        <ele>3084.5</ele>
        <time>2020-06-21T13:23:29Z</time>
      </trkpt>
      <trkpt lat="42.835430" lon="0.114833">
        <ele>3079.6</ele>
        <time>2020-06-21T13:24:12Z</time>
      </trkpt>
      <trkpt lat="42.835464" lon="0.114745">
        <ele>3074.6</ele>
        <time>2020-06-21T13:24:57Z</time>
      </trkpt>
      <trkpt lat="42.835490" lon="0.114775">
        <ele>3064.9</ele>
        <time>2020-06-21T13:36:59Z</time>
      </trkpt>
      <trkpt lat="42.835554" lon="0.114736">
        <ele>3059.1</ele>
        <time>2020-06-21T13:39:07Z</time>
      </trkpt>
      <trkpt lat="42.835625" lon="0.114824">
        <ele>3055.4</ele>
        <time>2020-06-21T13:39:36Z</time>
      </trkpt>
      <trkpt lat="42.835703" lon="0.114869">
        <ele>3049.1</ele>
        <time>2020-06-21T13:39:56Z</time>
      </trkpt>
      <trkpt lat="42.835801" lon="0.114884">
        <ele>3042.3</ele>
        <time>2020-06-21T13:40:14Z</time>
      </trkpt>
      <trkpt lat="42.835888" lon="0.114865">
        <ele>3037.1</ele>
        <time>2020-06-21T13:40:35Z</time>
      </trkpt>
      <trkpt lat="42.835975" lon="0.114849">
        <ele>3031.6</ele>
        <time>2020-06-21T13:41:09Z</time>
      </trkpt>
      <trkpt lat="42.836060" lon="0.114862">
        <ele>3023.7</ele>
        <time>2020-06-21T13:41:42Z</time>
      </trkpt>
      <trkpt lat="42.836137" lon="0.114906">
        <ele>3017.3</ele>
        <time>2020-06-21T13:42:06Z</time>
      </trkpt>
      <trkpt lat="42.836224" lon="0.114925">
        <ele>3010.5</ele>
        <time>2020-06-21T13:42:25Z</time>
      </trkpt>
      <trkpt lat="42.836307" lon="0.114956">
        <ele>3005.4</ele>
        <time>2020-06-21T13:42:41Z</time>
      </trkpt>
      <trkpt lat="42.836397" lon="0.114988">
        <ele>2999.3</ele>
        <time>2020-06-21T13:42:58Z</time>
      </trkpt>
      <trkpt lat="42.836477" lon="0.115002">
        <ele>2992.9</ele>
        <time>2020-06-21T13:43:15Z</time>
      </trkpt>
      <trkpt lat="42.836519" lon="0.114954">
        <ele>2989.9</ele>
        <time>2020-06-21T13:43:50Z</time>
      </trkpt>
      <trkpt lat="42.836561" lon="0.114855">
        <ele>2986.4</ele>
        <time>2020-06-21T13:44:09Z</time>
      </trkpt>
      <trkpt lat="42.836616" lon="0.114863">
        <ele>2982.4</ele>
        <time>2020-06-21T13:44:41Z</time>
      </trkpt>
      <trkpt lat="42.836684" lon="0.114796">
        <ele>2977.3</ele>
        <time>2020-06-21T13:44:56Z</time>
      </trkpt>
      <trkpt lat="42.836712" lon="0.114705">
        <ele>2973.8</ele>
        <time>2020-06-21T13:45:37Z</time>
      </trkpt>
      <trkpt lat="42.836776" lon="0.114641">
        <ele>2969.2</ele>
        <time>2020-06-21T13:45:54Z</time>
      </trkpt>
      <trkpt lat="42.836817" lon="0.114543">
        <ele>2965.7</ele>
        <time>2020-06-21T13:46:12Z</time>
      </trkpt>
      <trkpt lat="42.836838" lon="0.114433">
        <ele>2965.7</ele>
        <time>2020-06-21T13:46:32Z</time>
      </trkpt>
      <trkpt lat="42.836893" lon="0.114321">
        <ele>2964.2</ele>
        <time>2020-06-21T13:46:44Z</time>
      </trkpt>
      <trkpt lat="42.836971" lon="0.114214">
        <ele>2962.4</ele>
        <time>2020-06-21T13:46:58Z</time>
      </trkpt>
      <trkpt lat="42.837037" lon="0.114134">
        <ele>2959.9</ele>
        <time>2020-06-21T13:47:19Z</time>
      </trkpt>
      <trkpt lat="42.837121" lon="0.114089">
        <ele>2956.3</ele>
        <time>2020-06-21T13:47:35Z</time>
      </trkpt>
      <trkpt lat="42.837176" lon="0.113973">
        <ele>2953.9</ele>
        <time>2020-06-21T13:47:53Z</time>
      </trkpt>
      <trkpt lat="42.837221" lon="0.113949">
        <ele>2951.9</ele>
        <time>2020-06-21T13:48:30Z</time>
      </trkpt>
      <trkpt lat="42.837296" lon="0.113846">
        <ele>2950.1</ele>
        <time>2020-06-21T13:48:42Z</time>
      </trkpt>
      <trkpt lat="42.837371" lon="0.113769">
        <ele>2948.3</ele>
        <time>2020-06-21T13:48:51Z</time>
      </trkpt>
      <trkpt lat="42.837437" lon="0.113689">
        <ele>2944.8</ele>
        <time>2020-06-21T13:49:04Z</time>
      </trkpt>
      <trkpt lat="42.837494" lon="0.113597">
        <ele>2943.2</ele>
        <time>2020-06-21T13:49:17Z</time>
      </trkpt>
      <trkpt lat="42.837562" lon="0.113541">
        <ele>2940.4</ele>
        <time>2020-06-21T13:49:31Z</time>
      </trkpt>
      <trkpt lat="42.837615" lon="0.113435">
        <ele>2938.4</ele>
        <time>2020-06-21T13:49:51Z</time>
      </trkpt>
      <trkpt lat="42.837695" lon="0.113343">
        <ele>2933.7</ele>
        <time>2020-06-21T13:50:08Z</time>
      </trkpt>
      <trkpt lat="42.837804" lon="0.113284">
        <ele>2929.8</ele>
        <time>2020-06-21T13:50:27Z</time>
      </trkpt>
      <trkpt lat="42.837872" lon="0.113366">
        <ele>2923.5</ele>
        <time>2020-06-21T13:50:43Z</time>
      </trkpt>
      <trkpt lat="42.837937" lon="0.113432">
        <ele>2916.2</ele>
        <time>2020-06-21T13:51:00Z</time>
      </trkpt>
      <trkpt lat="42.838009" lon="0.113508">
        <ele>2910.0</ele>
        <time>2020-06-21T13:51:15Z</time>
      </trkpt>
      <trkpt lat="42.838075" lon="0.113591">
        <ele>2904.1</ele>
        <time>2020-06-21T13:51:31Z</time>
      </trkpt>
      <trkpt lat="42.838133" lon="0.113681">
        <ele>2898.1</ele>
        <time>2020-06-21T13:51:43Z</time>
      </trkpt>
      <trkpt lat="42.838160" lon="0.113830">
        <ele>2892.5</ele>
        <time>2020-06-21T13:51:58Z</time>
      </trkpt>
      <trkpt lat="42.838243" lon="0.113902">
        <ele>2888.9</ele>
        <time>2020-06-21T13:52:12Z</time>
      </trkpt>
      <trkpt lat="42.838284" lon="0.113940">
        <ele>2885.9</ele>
        <time>2020-06-21T13:52:40Z</time>
      </trkpt>
      <trkpt lat="42.838332" lon="0.113973">
        <ele>2881.7</ele>
        <time>2020-06-21T13:55:39Z</time>
      </trkpt>
      <trkpt lat="42.838378" lon="0.114086">
        <ele>2877.9</ele>
        <time>2020-06-21T13:55:50Z</time>
      </trkpt>
      <trkpt lat="42.838408" lon="0.114190">
        <ele>2873.9</ele>
        <time>2020-06-21T13:56:00Z</time>
      </trkpt>
      <trkpt lat="42.838438" lon="0.114285">
        <ele>2870.3</ele>
        <time>2020-06-21T13:56:35Z</time>
      </trkpt>
      <trkpt lat="42.838520" lon="0.114349">
        <ele>2867.6</ele>
        <time>2020-06-21T13:56:45Z</time>
      </trkpt>
      <trkpt lat="42.838581" lon="0.114433">
        <ele>2864.9</ele>
        <time>2020-06-21T13:56:55Z</time>
      </trkpt>
      <trkpt lat="42.838662" lon="0.114500">
        <ele>2861.2</ele>
        <time>2020-06-21T13:57:05Z</time>
      </trkpt>
      <trkpt lat="42.838727" lon="0.114575">
        <ele>2858.3</ele>
        <time>2020-06-21T13:57:15Z</time>
      </trkpt>
      <trkpt lat="42.838757" lon="0.114695">
        <ele>2854.4</ele>
        <time>2020-06-21T13:57:28Z</time>
      </trkpt>
      <trkpt lat="42.838798" lon="0.114760">
        <ele>2850.8</ele>
        <time>2020-06-21T13:57:49Z</time>
      </trkpt>
      <trkpt lat="42.838851" lon="0.114822">
        <ele>2846.9</ele>
        <time>2020-06-21T13:57:59Z</time>
      </trkpt>
      <trkpt lat="42.838891" lon="0.114925">
        <ele>2842.3</ele>
        <time>2020-06-21T13:58:09Z</time>
      </trkpt>
      <trkpt lat="42.838928" lon="0.115043">
        <ele>2837.4</ele>
        <time>2020-06-21T13:58:19Z</time>
      </trkpt>
      <trkpt lat="42.838969" lon="0.115173">
        <ele>2832.7</ele>
        <time>2020-06-21T13:58:29Z</time>
      </trkpt>
      <trkpt lat="42.839006" lon="0.115306">
        <ele>2828.5</ele>
        <time>2020-06-21T13:58:39Z</time>
      </trkpt>
      <trkpt lat="42.839040" lon="0.115440">
        <ele>2824.9</ele>
        <time>2020-06-21T13:58:50Z</time>
      </trkpt>
      <trkpt lat="42.839084" lon="0.115557">
        <ele>2821.0</ele>
        <time>2020-06-21T13:59:01Z</time>
      </trkpt>
      <trkpt lat="42.839125" lon="0.115666">
        <ele>2818.2</ele>
        <time>2020-06-21T13:59:12Z</time>
      </trkpt>
      <trkpt lat="42.839144" lon="0.115773">
        <ele>2813.9</ele>
        <time>2020-06-21T13:59:23Z</time>
      </trkpt>
      <trkpt lat="42.839196" lon="0.115893">
        <ele>2808.8</ele>
        <time>2020-06-21T13:59:34Z</time>
      </trkpt>
      <trkpt lat="42.839268" lon="0.115978">
        <ele>2804.8</ele>
        <time>2020-06-21T13:59:45Z</time>
      </trkpt>
      <trkpt lat="42.839331" lon="0.116046">
        <ele>2800.8</ele>
        <time>2020-06-21T13:59:56Z</time>
      </trkpt>
      <trkpt lat="42.839331" lon="0.116114">
        <ele>2797.7</ele>
        <time>2020-06-21T14:00:26Z</time>
      </trkpt>
      <trkpt lat="42.839400" lon="0.116212">
        <ele>2794.6</ele>
        <time>2020-06-21T14:00:36Z</time>
      </trkpt>
      <trkpt lat="42.839470" lon="0.116299">
        <ele>2790.7</ele>
        <time>2020-06-21T14:00:46Z</time>
      </trkpt>
      <trkpt lat="42.839526" lon="0.116399">
        <ele>2786.2</ele>
        <time>2020-06-21T14:00:56Z</time>
      </trkpt>
      <trkpt lat="42.839582" lon="0.116505">
        <ele>2783.3</ele>
        <time>2020-06-21T14:01:06Z</time>
      </trkpt>
      <trkpt lat="42.839626" lon="0.116597">
        <ele>2779.3</ele>
        <time>2020-06-21T14:01:16Z</time>
      </trkpt>
      <trkpt lat="42.839675" lon="0.116697">
        <ele>2775.1</ele>
        <time>2020-06-21T14:01:27Z</time>
      </trkpt>
      <trkpt lat="42.839687" lon="0.116805">
        <ele>2772.4</ele>
        <time>2020-06-21T14:01:38Z</time>
      </trkpt>
      <trkpt lat="42.839702" lon="0.116931">
        <ele>2769.1</ele>
        <time>2020-06-21T14:01:49Z</time>
      </trkpt>
      <trkpt lat="42.839738" lon="0.117038">
        <ele>2765.3</ele>
        <time>2020-06-21T14:02:01Z</time>
      </trkpt>
      <trkpt lat="42.839767" lon="0.117122">
        <ele>2760.4</ele>
        <time>2020-06-21T14:02:14Z</time>
      </trkpt>
      <trkpt lat="42.839851" lon="0.117215">
        <ele>2756.0</ele>
        <time>2020-06-21T14:02:20Z</time>
      </trkpt>
      <trkpt lat="42.839885" lon="0.117303">
        <ele>2753.0</ele>
        <time>2020-06-21T14:02:33Z</time>
      </trkpt>
      <trkpt lat="42.839944" lon="0.117398">
        <ele>2748.4</ele>
        <time>2020-06-21T14:02:48Z</time>
      </trkpt>
      <trkpt lat="42.839957" lon="0.117519">
        <ele>2746.3</ele>
        <time>2020-06-21T14:02:59Z</time>
      </trkpt>
      <trkpt lat="42.840008" lon="0.117637">
        <ele>2741.6</ele>
        <time>2020-06-21T14:03:12Z</time>
      </trkpt>
      <trkpt lat="42.840034" lon="0.117786">
        <ele>2739.9</ele>
        <time>2020-06-21T14:03:23Z</time>
      </trkpt>
      <trkpt lat="42.840060" lon="0.117925">
        <ele>2737.6</ele>
        <time>2020-06-21T14:03:32Z</time>
      </trkpt>
      <trkpt lat="42.840089" lon="0.118031">
        <ele>2735.6</ele>
        <time>2020-06-21T14:03:44Z</time>
      </trkpt>
      <trkpt lat="42.840102" lon="0.118144">
        <ele>2732.9</ele>
        <time>2020-06-21T14:03:59Z</time>
      </trkpt>
      <trkpt lat="42.840116" lon="0.118266">
        <ele>2729.6</ele>
        <time>2020-06-21T14:04:08Z</time>
      </trkpt>
      <trkpt lat="42.840120" lon="0.118399">
        <ele>2727.0</ele>
        <time>2020-06-21T14:04:17Z</time>
      </trkpt>
      <trkpt lat="42.840129" lon="0.118505">
        <ele>2724.1</ele>
        <time>2020-06-21T14:04:28Z</time>
      </trkpt>
      <trkpt lat="42.840209" lon="0.118620">
        <ele>2717.4</ele>
        <time>2020-06-21T14:04:33Z</time>
      </trkpt>
      <trkpt lat="42.840266" lon="0.118727">
        <ele>2711.7</ele>
        <time>2020-06-21T14:04:36Z</time>
      </trkpt>
      <trkpt lat="42.840303" lon="0.118865">
        <ele>2705.4</ele>
        <time>2020-06-21T14:04:41Z</time>
      </trkpt>
      <trkpt lat="42.840324" lon="0.118984">
        <ele>2701.7</ele>
        <time>2020-06-21T14:04:59Z</time>
      </trkpt>
      <trkpt lat="42.840357" lon="0.119112">
        <ele>2700.8</ele>
        <time>2020-06-21T14:05:08Z</time>
      </trkpt>
      <trkpt lat="42.840394" lon="0.119226">
        <ele>2699.2</ele>
        <time>2020-06-21T14:05:17Z</time>
      </trkpt>
      <trkpt lat="42.840442" lon="0.119331">
        <ele>2695.6</ele>
        <time>2020-06-21T14:05:28Z</time>
      </trkpt>
      <trkpt lat="42.840465" lon="0.119460">
        <ele>2694.4</ele>
        <time>2020-06-21T14:05:37Z</time>
      </trkpt>
      <trkpt lat="42.840483" lon="0.119589">
        <ele>2691.7</ele>
        <time>2020-06-21T14:05:45Z</time>
      </trkpt>
      <trkpt lat="42.840498" lon="0.119727">
        <ele>2689.2</ele>
        <time>2020-06-21T14:05:54Z</time>
      </trkpt>
      <trkpt lat="42.840518" lon="0.119864">
        <ele>2687.5</ele>
        <time>2020-06-21T14:06:03Z</time>
      </trkpt>
      <trkpt lat="42.840557" lon="0.119983">
        <ele>2683.3</ele>
        <time>2020-06-21T14:06:13Z</time>
      </trkpt>
      <trkpt lat="42.840583" lon="0.120107">
        <ele>2680.3</ele>
        <time>2020-06-21T14:06:23Z</time>
      </trkpt>
      <trkpt lat="42.840581" lon="0.120234">
        <ele>2677.2</ele>
        <time>2020-06-21T14:06:32Z</time>
      </trkpt>
      <trkpt lat="42.840609" lon="0.120357">
        <ele>2675.3</ele>
        <time>2020-06-21T14:06:42Z</time>
      </trkpt>
      <trkpt lat="42.840658" lon="0.120481">
        <ele>2673.5</ele>
        <time>2020-06-21T14:06:53Z</time>
      </trkpt>
      <trkpt lat="42.840707" lon="0.120604">
        <ele>2672.7</ele>
        <time>2020-06-21T14:07:04Z</time>
      </trkpt>
      <trkpt lat="42.840741" lon="0.120732">
        <ele>2670.8</ele>
        <time>2020-06-21T14:07:14Z</time>
      </trkpt>
      <trkpt lat="42.840764" lon="0.120858">
        <ele>2668.9</ele>
        <time>2020-06-21T14:07:24Z</time>
      </trkpt>
      <trkpt lat="42.840788" lon="0.120990">
        <ele>2667.3</ele>
        <time>2020-06-21T14:07:34Z</time>
      </trkpt>
      <trkpt lat="42.840795" lon="0.121120">
        <ele>2665.6</ele>
        <time>2020-06-21T14:07:44Z</time>
      </trkpt>
      <trkpt lat="42.840803" lon="0.121248">
        <ele>2664.4</ele>
        <time>2020-06-21T14:07:54Z</time>
      </trkpt>
      <trkpt lat="42.840801" lon="0.121368">
        <ele>2661.1</ele>
        <time>2020-06-21T14:08:06Z</time>
      </trkpt>
      <trkpt lat="42.840816" lon="0.121490">
        <ele>2657.4</ele>
        <time>2020-06-21T14:08:17Z</time>
      </trkpt>
      <trkpt lat="42.840898" lon="0.121549">
        <ele>2653.2</ele>
        <time>2020-06-21T14:08:27Z</time>
      </trkpt>
      <trkpt lat="42.840964" lon="0.121647">
        <ele>2647.4</ele>
        <time>2020-06-21T14:08:37Z</time>
      </trkpt>
      <trkpt lat="42.840990" lon="0.121766">
        <ele>2643.6</ele>
        <time>2020-06-21T14:08:47Z</time>
      </trkpt>
      <trkpt lat="42.841020" lon="0.121880">
        <ele>2639.0</ele>
        <time>2020-06-21T14:08:58Z</time>
      </trkpt>
      <trkpt lat="42.841023" lon="0.122013">
        <ele>2636.5</ele>
        <time>2020-06-21T14:09:09Z</time>
      </trkpt>
      <trkpt lat="42.841010" lon="0.122148">
        <ele>2633.9</ele>
        <time>2020-06-21T14:09:20Z</time>
      </trkpt>
      <trkpt lat="42.840990" lon="0.122277">
        <ele>2631.3</ele>
        <time>2020-06-21T14:09:31Z</time>
      </trkpt>
      <trkpt lat="42.840967" lon="0.122390">
        <ele>2628.6</ele>
        <time>2020-06-21T14:09:42Z</time>
      </trkpt>
      <trkpt lat="42.840938" lon="0.122505">
        <ele>2625.6</ele>
        <time>2020-06-21T14:09:54Z</time>
      </trkpt>
      <trkpt lat="42.840906" lon="0.122623">
        <ele>2622.7</ele>
        <time>2020-06-21T14:10:05Z</time>
      </trkpt>
      <trkpt lat="42.840875" lon="0.122740">
        <ele>2620.1</ele>
        <time>2020-06-21T14:10:17Z</time>
      </trkpt>
      <trkpt lat="42.840865" lon="0.122863">
        <ele>2616.6</ele>
        <time>2020-06-21T14:10:29Z</time>
      </trkpt>
      <trkpt lat="42.840892" lon="0.122958">
        <ele>2612.7</ele>
        <time>2020-06-21T14:11:14Z</time>
      </trkpt>
      <trkpt lat="42.840885" lon="0.123073">
        <ele>2607.8</ele>
        <time>2020-06-21T14:11:30Z</time>
      </trkpt>
      <trkpt lat="42.840870" lon="0.123157">
        <ele>2603.8</ele>
        <time>2020-06-21T14:15:57Z</time>
      </trkpt>
      <trkpt lat="42.840846" lon="0.123288">
        <ele>2601.8</ele>
        <time>2020-06-21T14:16:08Z</time>
      </trkpt>
      <trkpt lat="42.840824" lon="0.123422">
        <ele>2600.1</ele>
        <time>2020-06-21T14:16:19Z</time>
      </trkpt>
      <trkpt lat="42.840803" lon="0.123562">
        <ele>2598.3</ele>
        <time>2020-06-21T14:16:30Z</time>
      </trkpt>
      <trkpt lat="42.840780" lon="0.123694">
        <ele>2596.5</ele>
        <time>2020-06-21T14:16:41Z</time>
      </trkpt>
      <trkpt lat="42.840755" lon="0.123823">
        <ele>2593.6</ele>
        <time>2020-06-21T14:16:53Z</time>
      </trkpt>
      <trkpt lat="42.840738" lon="0.123955">
        <ele>2591.7</ele>
        <time>2020-06-21T14:17:04Z</time>
      </trkpt>
      <trkpt lat="42.840720" lon="0.124089">
        <ele>2589.8</ele>
        <time>2020-06-21T14:17:15Z</time>
      </trkpt>
      <trkpt lat="42.840699" lon="0.124210">
        <ele>2587.0</ele>
        <time>2020-06-21T14:17:25Z</time>
      </trkpt>
      <trkpt lat="42.840670" lon="0.124328">
        <ele>2583.4</ele>
        <time>2020-06-21T14:17:56Z</time>
      </trkpt>
      <trkpt lat="42.840648" lon="0.124453">
        <ele>2580.3</ele>
        <time>2020-06-21T14:18:07Z</time>
      </trkpt>
      <trkpt lat="42.840617" lon="0.124573">
        <ele>2576.3</ele>
        <time>2020-06-21T14:18:19Z</time>
      </trkpt>
      <trkpt lat="42.840597" lon="0.124706">
        <ele>2572.7</ele>
        <time>2020-06-21T14:18:32Z</time>
      </trkpt>
      <trkpt lat="42.840573" lon="0.124799">
        <ele>2567.0</ele>
        <time>2020-06-21T14:18:49Z</time>
      </trkpt>
      <trkpt lat="42.840517" lon="0.124928">
        <ele>2561.7</ele>
        <time>2020-06-21T14:18:55Z</time>
      </trkpt>
      <trkpt lat="42.840487" lon="0.125064">
        <ele>2556.6</ele>
        <time>2020-06-21T14:19:00Z</time>
      </trkpt>
      <trkpt lat="42.840483" lon="0.125196">
        <ele>2551.9</ele>
        <time>2020-06-21T14:19:03Z</time>
      </trkpt>
      <trkpt lat="42.840487" lon="0.125331">
        <ele>2546.2</ele>
        <time>2020-06-21T14:19:06Z</time>
      </trkpt>
      <trkpt lat="42.840503" lon="0.125443">
        <ele>2542.0</ele>
        <time>2020-06-21T14:19:23Z</time>
      </trkpt>
      <trkpt lat="42.840496" lon="0.125581">
        <ele>2539.0</ele>
        <time>2020-06-21T14:19:34Z</time>
      </trkpt>
      <trkpt lat="42.840481" lon="0.125723">
        <ele>2537.1</ele>
        <time>2020-06-21T14:19:45Z</time>
      </trkpt>
      <trkpt lat="42.840466" lon="0.125853">
        <ele>2536.3</ele>
        <time>2020-06-21T14:19:56Z</time>
      </trkpt>
      <trkpt lat="42.840440" lon="0.125967">
        <ele>2536.3</ele>
        <time>2020-06-21T14:20:07Z</time>
      </trkpt>
      <trkpt lat="42.840396" lon="0.126081">
        <ele>2535.5</ele>
        <time>2020-06-21T14:20:18Z</time>
      </trkpt>
      <trkpt lat="42.840349" lon="0.126204">
        <ele>2534.6</ele>
        <time>2020-06-21T14:20:29Z</time>
      </trkpt>
      <trkpt lat="42.840313" lon="0.126313">
        <ele>2533.6</ele>
        <time>2020-06-21T14:20:39Z</time>
      </trkpt>
      <trkpt lat="42.840281" lon="0.126425">
        <ele>2531.9</ele>
        <time>2020-06-21T14:20:50Z</time>
      </trkpt>
      <trkpt lat="42.840253" lon="0.126550">
        <ele>2529.0</ele>
        <time>2020-06-21T14:21:01Z</time>
      </trkpt>
      <trkpt lat="42.840237" lon="0.126675">
        <ele>2525.3</ele>
        <time>2020-06-21T14:21:13Z</time>
      </trkpt>
      <trkpt lat="42.840196" lon="0.126792">
        <ele>2521.6</ele>
        <time>2020-06-21T14:21:26Z</time>
      </trkpt>
      <trkpt lat="42.840136" lon="0.126903">
        <ele>2518.1</ele>
        <time>2020-06-21T14:21:40Z</time>
      </trkpt>
      <trkpt lat="42.840074" lon="0.127006">
        <ele>2518.2</ele>
        <time>2020-06-21T14:21:55Z</time>
      </trkpt>
      <trkpt lat="42.840043" lon="0.127134">
        <ele>2517.3</ele>
        <time>2020-06-21T14:22:11Z</time>
      </trkpt>
      <trkpt lat="42.840021" lon="0.127267">
        <ele>2516.3</ele>
        <time>2020-06-21T14:22:23Z</time>
      </trkpt>
      <trkpt lat="42.839990" lon="0.127368">
        <ele>2513.2</ele>
        <time>2020-06-21T14:25:21Z</time>
      </trkpt>
      <trkpt lat="42.839924" lon="0.127481">
        <ele>2513.1</ele>
        <time>2020-06-21T14:25:38Z</time>
      </trkpt>
      <trkpt lat="42.839871" lon="0.127596">
        <ele>2515.5</ele>
        <time>2020-06-21T14:25:53Z</time>
      </trkpt>
      <trkpt lat="42.839820" lon="0.127706">
        <ele>2515.4</ele>
        <time>2020-06-21T14:26:07Z</time>
      </trkpt>
      <trkpt lat="42.839772" lon="0.127815">
        <ele>2515.4</ele>
        <time>2020-06-21T14:26:21Z</time>
      </trkpt>
      <trkpt lat="42.839733" lon="0.127934">
        <ele>2515.3</ele>
        <time>2020-06-21T14:26:36Z</time>
      </trkpt>
      <trkpt lat="42.839694" lon="0.128055">
        <ele>2515.3</ele>
        <time>2020-06-21T14:26:49Z</time>
      </trkpt>
      <trkpt lat="42.839663" lon="0.128172">
        <ele>2515.2</ele>
        <time>2020-06-21T14:27:01Z</time>
      </trkpt>
      <trkpt lat="42.839630" lon="0.128296">
        <ele>2515.1</ele>
        <time>2020-06-21T14:27:15Z</time>
      </trkpt>
      <trkpt lat="42.839592" lon="0.128419">
        <ele>2515.1</ele>
        <time>2020-06-21T14:27:28Z</time>
      </trkpt>
      <trkpt lat="42.839557" lon="0.128543">
        <ele>2515.0</ele>
        <time>2020-06-21T14:27:40Z</time>
      </trkpt>
      <trkpt lat="42.839518" lon="0.128667">
        <ele>2514.9</ele>
        <time>2020-06-21T14:27:53Z</time>
      </trkpt>
      <trkpt lat="42.839481" lon="0.128784">
        <ele>2512.5</ele>
        <time>2020-06-21T14:28:05Z</time>
      </trkpt>
      <trkpt lat="42.839456" lon="0.128907">
        <ele>2510.8</ele>
        <time>2020-06-21T14:28:17Z</time>
      </trkpt>
      <trkpt lat="42.839428" lon="0.129035">
        <ele>2508.1</ele>
        <time>2020-06-21T14:28:30Z</time>
      </trkpt>
      <trkpt lat="42.839389" lon="0.129156">
        <ele>2505.6</ele>
        <time>2020-06-21T14:28:43Z</time>
      </trkpt>
      <trkpt lat="42.839381" lon="0.129282">
        <ele>2502.9</ele>
        <time>2020-06-21T14:28:57Z</time>
      </trkpt>
      <trkpt lat="42.839396" lon="0.129404">
        <ele>2498.9</ele>
        <time>2020-06-21T14:29:09Z</time>
      </trkpt>
      <trkpt lat="42.839410" lon="0.129512">
        <ele>2495.4</ele>
        <time>2020-06-21T14:29:22Z</time>
      </trkpt>
      <trkpt lat="42.839425" lon="0.129653">
        <ele>2491.6</ele>
        <time>2020-06-21T14:29:36Z</time>
      </trkpt>
      <trkpt lat="42.839440" lon="0.129779">
        <ele>2487.3</ele>
        <time>2020-06-21T14:29:50Z</time>
      </trkpt>
      <trkpt lat="42.839458" lon="0.129904">
        <ele>2484.4</ele>
        <time>2020-06-21T14:30:02Z</time>
      </trkpt>
      <trkpt lat="42.839465" lon="0.130037">
        <ele>2481.9</ele>
        <time>2020-06-21T14:30:17Z</time>
      </trkpt>
      <trkpt lat="42.839470" lon="0.130172">
        <ele>2478.7</ele>
        <time>2020-06-21T14:30:29Z</time>
      </trkpt>
      <trkpt lat="42.839445" lon="0.130284">
        <ele>2475.2</ele>
        <time>2020-06-21T14:30:41Z</time>
      </trkpt>
      <trkpt lat="42.839392" lon="0.130398">
        <ele>2470.6</ele>
        <time>2020-06-21T14:30:53Z</time>
      </trkpt>
      <trkpt lat="42.839353" lon="0.130520">
        <ele>2467.6</ele>
        <time>2020-06-21T14:31:04Z</time>
      </trkpt>
      <trkpt lat="42.839302" lon="0.130622">
        <ele>2466.0</ele>
        <time>2020-06-21T14:31:14Z</time>
      </trkpt>
      <trkpt lat="42.839244" lon="0.130744">
        <ele>2463.0</ele>
        <time>2020-06-21T14:31:25Z</time>
      </trkpt>
      <trkpt lat="42.839159" lon="0.130841">
        <ele>2461.1</ele>
        <time>2020-06-21T14:31:37Z</time>
      </trkpt>
      <trkpt lat="42.839055" lon="0.130954">
        <ele>2459.2</ele>
        <time>2020-06-21T14:31:50Z</time>
      </trkpt>
      <trkpt lat="42.839019" lon="0.131103">
        <ele>2455.6</ele>
        <time>2020-06-21T14:32:03Z</time>
      </trkpt>
      <trkpt lat="42.839039" lon="0.131237">
        <ele>2454.7</ele>
        <time>2020-06-21T14:32:18Z</time>
      </trkpt>
      <trkpt lat="42.839035" lon="0.131348">
        <ele>2452.6</ele>
        <time>2020-06-21T14:32:56Z</time>
      </trkpt>
      <trkpt lat="42.839031" lon="0.131503">
        <ele>2450.8</ele>
        <time>2020-06-21T14:33:10Z</time>
      </trkpt>
      <trkpt lat="42.839038" lon="0.131627">
        <ele>2449.9</ele>
        <time>2020-06-21T14:33:28Z</time>
      </trkpt>
      <trkpt lat="42.839138" lon="0.131642">
        <ele>2444.6</ele>
        <time>2020-06-21T14:33:42Z</time>
      </trkpt>
      <trkpt lat="42.839228" lon="0.131708">
        <ele>2442.9</ele>
        <time>2020-06-21T14:33:56Z</time>
      </trkpt>
      <trkpt lat="42.839281" lon="0.131809">
        <ele>2441.5</ele>
        <time>2020-06-21T14:34:25Z</time>
      </trkpt>
      <trkpt lat="42.839317" lon="0.131928">
        <ele>2440.5</ele>
        <time>2020-06-21T14:34:40Z</time>
      </trkpt>
      <trkpt lat="42.839359" lon="0.132029">
        <ele>2437.9</ele>
        <time>2020-06-21T14:35:34Z</time>
      </trkpt>
      <trkpt lat="42.839411" lon="0.132066">
        <ele>2437.0</ele>
        <time>2020-06-21T14:39:33Z</time>
      </trkpt>
      <trkpt lat="42.839416" lon="0.132187">
        <ele>2436.9</ele>
        <time>2020-06-21T14:39:55Z</time>
      </trkpt>
      <trkpt lat="42.839422" lon="0.132308">
        <ele>2439.1</ele>
        <time>2020-06-21T14:40:21Z</time>
      </trkpt>
      <trkpt lat="42.839375" lon="0.132356">
        <ele>2441.8</ele>
        <time>2020-06-21T14:40:47Z</time>
      </trkpt>
      <trkpt lat="42.839314" lon="0.132383">
        <ele>2445.6</ele>
        <time>2020-06-21T14:41:25Z</time>
      </trkpt>
      <trkpt lat="42.839303" lon="0.132448">
        <ele>2446.2</ele>
        <time>2020-06-21T14:41:51Z</time>
      </trkpt>
      <trkpt lat="42.839313" lon="0.132565">
        <ele>2443.8</ele>
        <time>2020-06-21T14:42:11Z</time>
      </trkpt>
      <trkpt lat="42.839322" lon="0.132683">
        <ele>2443.7</ele>
        <time>2020-06-21T14:42:29Z</time>
      </trkpt>
      <trkpt lat="42.839298" lon="0.132789">
        <ele>2441.2</ele>
        <time>2020-06-21T14:42:53Z</time>
      </trkpt>
      <trkpt lat="42.839292" lon="0.132908">
        <ele>2440.2</ele>
        <time>2020-06-21T14:43:12Z</time>
      </trkpt>
      <trkpt lat="42.839291" lon="0.133035">
        <ele>2438.4</ele>
        <time>2020-06-21T14:43:44Z</time>
      </trkpt>
      <trkpt lat="42.839235" lon="0.133125">
        <ele>2438.3</ele>
        <time>2020-06-21T14:44:33Z</time>
      </trkpt>
      <trkpt lat="42.839246" lon="0.133226">
        <ele>2438.1</ele>
        <time>2020-06-21T14:44:56Z</time>
      </trkpt>
      <trkpt lat="42.839311" lon="0.133302">
        <ele>2438.1</ele>
        <time>2020-06-21T14:45:32Z</time>
      </trkpt>
      <trkpt lat="42.839257" lon="0.133355">
        <ele>2437.2</ele>
        <time>2020-06-21T14:45:54Z</time>
      </trkpt>
      <trkpt lat="42.839243" lon="0.133479">
        <ele>2436.3</ele>
        <time>2020-06-21T14:46:09Z</time>
      </trkpt>
      <trkpt lat="42.839164" lon="0.133568">
        <ele>2435.3</ele>
        <time>2020-06-21T14:46:35Z</time>
      </trkpt>
      <trkpt lat="42.839100" lon="0.133656">
        <ele>2434.4</ele>
        <time>2020-06-21T14:46:49Z</time>
      </trkpt>
      <trkpt lat="42.839044" lon="0.133759">
        <ele>2432.5</ele>
        <time>2020-06-21T14:47:59Z</time>
      </trkpt>
      <trkpt lat="42.838984" lon="0.133829">
        <ele>2428.9</ele>
        <time>2020-06-21T14:48:17Z</time>
      </trkpt>
      <trkpt lat="42.838894" lon="0.133857">
        <ele>2425.3</ele>
        <time>2020-06-21T14:48:40Z</time>
      </trkpt>
      <trkpt lat="42.838809" lon="0.133907">
        <ele>2422.8</ele>
        <time>2020-06-21T14:49:01Z</time>
      </trkpt>
      <trkpt lat="42.838814" lon="0.133998">
        <ele>2420.7</ele>
        <time>2020-06-21T14:50:27Z</time>
      </trkpt>
      <trkpt lat="42.838838" lon="0.134074">
        <ele>2416.0</ele>
        <time>2020-06-21T14:51:08Z</time>
      </trkpt>
      <trkpt lat="42.838808" lon="0.134191">
        <ele>2414.0</ele>
        <time>2020-06-21T14:51:21Z</time>
      </trkpt>
      <trkpt lat="42.838725" lon="0.134242">
        <ele>2412.4</ele>
        <time>2020-06-21T14:51:51Z</time>
      </trkpt>
      <trkpt lat="42.838646" lon="0.134299">
        <ele>2409.6</ele>
        <time>2020-06-21T14:52:07Z</time>
      </trkpt>
      <trkpt lat="42.838557" lon="0.134321">
        <ele>2407.2</ele>
        <time>2020-06-21T14:52:22Z</time>
      </trkpt>
      <trkpt lat="42.838469" lon="0.134327">
        <ele>2407.2</ele>
        <time>2020-06-21T14:52:35Z</time>
      </trkpt>
      <trkpt lat="42.838393" lon="0.134377">
        <ele>2405.4</ele>
        <time>2020-06-21T14:52:47Z</time>
      </trkpt>
      <trkpt lat="42.838314" lon="0.134397">
        <ele>2402.8</ele>
        <time>2020-06-21T14:53:00Z</time>
      </trkpt>
      <trkpt lat="42.838272" lon="0.134486">
        <ele>2399.8</ele>
        <time>2020-06-21T14:53:13Z</time>
      </trkpt>
      <trkpt lat="42.838226" lon="0.134571">
        <ele>2397.1</ele>
        <time>2020-06-21T14:53:27Z</time>
      </trkpt>
      <trkpt lat="42.838161" lon="0.134621">
        <ele>2393.4</ele>
        <time>2020-06-21T14:53:45Z</time>
      </trkpt>
      <trkpt lat="42.838114" lon="0.134702">
        <ele>2389.4</ele>
        <time>2020-06-21T14:53:59Z</time>
      </trkpt>
      <trkpt lat="42.838056" lon="0.134759">
        <ele>2385.8</ele>
        <time>2020-06-21T14:54:12Z</time>
      </trkpt>
      <trkpt lat="42.838000" lon="0.134823">
        <ele>2382.3</ele>
        <time>2020-06-21T14:54:32Z</time>
      </trkpt>
      <trkpt lat="42.837964" lon="0.134887">
        <ele>2377.8</ele>
        <time>2020-06-21T14:54:52Z</time>
      </trkpt>
      <trkpt lat="42.837896" lon="0.134957">
        <ele>2374.4</ele>
        <time>2020-06-21T14:55:10Z</time>
      </trkpt>
      <trkpt lat="42.837849" lon="0.135039">
        <ele>2370.6</ele>
        <time>2020-06-21T14:55:28Z</time>
      </trkpt>
      <trkpt lat="42.837836" lon="0.135137">
        <ele>2366.9</ele>
        <time>2020-06-21T14:55:45Z</time>
      </trkpt>
      <trkpt lat="42.837781" lon="0.135235">
        <ele>2364.1</ele>
        <time>2020-06-21T14:55:59Z</time>
      </trkpt>
      <trkpt lat="42.837710" lon="0.135301">
        <ele>2361.4</ele>
        <time>2020-06-21T14:56:14Z</time>
      </trkpt>
      <trkpt lat="42.837639" lon="0.135366">
        <ele>2356.4</ele>
        <time>2020-06-21T14:56:37Z</time>
      </trkpt>
      <trkpt lat="42.837572" lon="0.135448">
        <ele>2352.9</ele>
        <time>2020-06-21T14:56:50Z</time>
      </trkpt>
      <trkpt lat="42.837513" lon="0.135532">
        <ele>2349.0</ele>
        <time>2020-06-21T14:57:08Z</time>
      </trkpt>
      <trkpt lat="42.837422" lon="0.135553">
        <ele>2345.4</ele>
        <time>2020-06-21T14:57:27Z</time>
      </trkpt>
      <trkpt lat="42.837332" lon="0.135510">
        <ele>2344.5</ele>
        <time>2020-06-21T14:57:50Z</time>
      </trkpt>
      <trkpt lat="42.837305" lon="0.135416">
        <ele>2346.8</ele>
        <time>2020-06-21T14:58:18Z</time>
      </trkpt>
      <trkpt lat="42.837250" lon="0.135311">
        <ele>2349.7</ele>
        <time>2020-06-21T14:58:38Z</time>
      </trkpt>
      <trkpt lat="42.837172" lon="0.135275">
        <ele>2350.3</ele>
        <time>2020-06-21T14:58:59Z</time>
      </trkpt>
      <trkpt lat="42.837107" lon="0.135343">
        <ele>2345.2</ele>
        <time>2020-06-21T14:59:14Z</time>
      </trkpt>
      <trkpt lat="42.837024" lon="0.135328">
        <ele>2342.7</ele>
        <time>2020-06-21T14:59:35Z</time>
      </trkpt>
      <trkpt lat="42.836953" lon="0.135374">
        <ele>2338.1</ele>
        <time>2020-06-21T14:59:59Z</time>
      </trkpt>
      <trkpt lat="42.836856" lon="0.135385">
        <ele>2335.6</ele>
        <time>2020-06-21T15:00:13Z</time>
      </trkpt>
      <trkpt lat="42.836780" lon="0.135350">
        <ele>2333.7</ele>
        <time>2020-06-21T15:00:29Z</time>
      </trkpt>
      <trkpt lat="42.836757" lon="0.135274">
        <ele>2331.9</ele>
        <time>2020-06-21T15:01:09Z</time>
      </trkpt>
      <trkpt lat="42.836665" lon="0.135296">
        <ele>2331.1</ele>
        <time>2020-06-21T15:01:27Z</time>
      </trkpt>
      <trkpt lat="42.836588" lon="0.135244">
        <ele>2329.9</ele>
        <time>2020-06-21T15:01:59Z</time>
      </trkpt>
      <trkpt lat="42.836566" lon="0.135315">
        <ele>2326.4</ele>
        <time>2020-06-21T15:02:36Z</time>
      </trkpt>
      <trkpt lat="42.836480" lon="0.135396">
        <ele>2324.0</ele>
        <time>2020-06-21T15:03:00Z</time>
      </trkpt>
      <trkpt lat="42.836480" lon="0.135453">
        <ele>2321.2</ele>
        <time>2020-06-21T15:03:21Z</time>
      </trkpt>
      <trkpt lat="42.836419" lon="0.135529">
        <ele>2317.4</ele>
        <time>2020-06-21T15:03:44Z</time>
      </trkpt>
      <trkpt lat="42.836399" lon="0.135618">
        <ele>2314.1</ele>
        <time>2020-06-21T15:04:10Z</time>
      </trkpt>
      <trkpt lat="42.836365" lon="0.135676">
        <ele>2310.4</ele>
        <time>2020-06-21T15:04:34Z</time>
      </trkpt>
      <trkpt lat="42.836321" lon="0.135792">
        <ele>2306.8</ele>
        <time>2020-06-21T15:07:55Z</time>
      </trkpt>
      <trkpt lat="42.836258" lon="0.135830">
        <ele>2305.9</ele>
        <time>2020-06-21T15:08:16Z</time>
      </trkpt>
      <trkpt lat="42.836170" lon="0.135810">
        <ele>2302.6</ele>
        <time>2020-06-21T15:08:42Z</time>
      </trkpt>
      <trkpt lat="42.836156" lon="0.135871">
        <ele>2299.4</ele>
        <time>2020-06-21T15:09:19Z</time>
      </trkpt>
      <trkpt lat="42.836088" lon="0.135895">
        <ele>2293.5</ele>
        <time>2020-06-21T15:09:56Z</time>
      </trkpt>
      <trkpt lat="42.836035" lon="0.135872">
        <ele>2290.0</ele>
        <time>2020-06-21T15:10:25Z</time>
      </trkpt>
      <trkpt lat="42.836016" lon="0.135910">
        <ele>2287.4</ele>
        <time>2020-06-21T15:10:55Z</time>
      </trkpt>
      <trkpt lat="42.835952" lon="0.135972">
        <ele>2282.8</ele>
        <time>2020-06-21T15:11:18Z</time>
      </trkpt>
      <trkpt lat="42.835882" lon="0.136033">
        <ele>2280.9</ele>
        <time>2020-06-21T15:11:35Z</time>
      </trkpt>
      <trkpt lat="42.835825" lon="0.136125">
        <ele>2278.3</ele>
        <time>2020-06-21T15:11:53Z</time>
      </trkpt>
      <trkpt lat="42.835781" lon="0.136241">
        <ele>2273.9</ele>
        <time>2020-06-21T15:12:12Z</time>
      </trkpt>
      <trkpt lat="42.835765" lon="0.136351">
        <ele>2270.5</ele>
        <time>2020-06-21T15:12:32Z</time>
      </trkpt>
      <trkpt lat="42.835724" lon="0.136449">
        <ele>2267.8</ele>
        <time>2020-06-21T15:12:51Z</time>
      </trkpt>
      <trkpt lat="42.835673" lon="0.136535">
        <ele>2263.9</ele>
        <time>2020-06-21T15:13:13Z</time>
      </trkpt>
      <trkpt lat="42.835612" lon="0.136637">
        <ele>2262.0</ele>
        <time>2020-06-21T15:13:28Z</time>
      </trkpt>
      <trkpt lat="42.835557" lon="0.136726">
        <ele>2260.6</ele>
        <time>2020-06-21T15:15:13Z</time>
      </trkpt>
      <trkpt lat="42.835496" lon="0.136799">
        <ele>2263.0</ele>
        <time>2020-06-21T15:15:32Z</time>
      </trkpt>
      <trkpt lat="42.835416" lon="0.136866">
        <ele>2263.8</ele>
        <time>2020-06-21T15:15:44Z</time>
      </trkpt>
      <trkpt lat="42.835345" lon="0.136952">
        <ele>2263.7</ele>
        <time>2020-06-21T15:15:54Z</time>
      </trkpt>
      <trkpt lat="42.835353" lon="0.137062">
        <ele>2257.9</ele>
        <time>2020-06-21T15:16:13Z</time>
      </trkpt>
      <trkpt lat="42.835403" lon="0.137123">
        <ele>2254.1</ele>
        <time>2020-06-21T15:16:37Z</time>
      </trkpt>
      <trkpt lat="42.835395" lon="0.137213">
        <ele>2249.5</ele>
        <time>2020-06-21T15:17:01Z</time>
      </trkpt>
      <trkpt lat="42.835355" lon="0.137309">
        <ele>2248.6</ele>
        <time>2020-06-21T15:17:21Z</time>
      </trkpt>
      <trkpt lat="42.835381" lon="0.137406">
        <ele>2245.9</ele>
        <time>2020-06-21T15:17:41Z</time>
      </trkpt>
      <trkpt lat="42.835371" lon="0.137535">
        <ele>2242.5</ele>
        <time>2020-06-21T15:17:56Z</time>
      </trkpt>
      <trkpt lat="42.835370" lon="0.137645">
        <ele>2239.8</ele>
        <time>2020-06-21T15:18:14Z</time>
      </trkpt>
      <trkpt lat="42.835385" lon="0.137768">
        <ele>2235.6</ele>
        <time>2020-06-21T15:18:42Z</time>
      </trkpt>
      <trkpt lat="42.835438" lon="0.137865">
        <ele>2232.8</ele>
        <time>2020-06-21T15:19:08Z</time>
      </trkpt>
      <trkpt lat="42.835493" lon="0.137941">
        <ele>2230.3</ele>
        <time>2020-06-21T15:19:35Z</time>
      </trkpt>
      <trkpt lat="42.835535" lon="0.138031">
        <ele>2225.4</ele>
        <time>2020-06-21T15:20:00Z</time>
      </trkpt>
      <trkpt lat="42.835549" lon="0.138149">
        <ele>2223.6</ele>
        <time>2020-06-21T15:20:14Z</time>
      </trkpt>
      <trkpt lat="42.835583" lon="0.138259">
        <ele>2221.0</ele>
        <time>2020-06-21T15:20:43Z</time>
      </trkpt>
      <trkpt lat="42.835623" lon="0.138373">
        <ele>2220.2</ele>
        <time>2020-06-21T15:20:53Z</time>
      </trkpt>
      <trkpt lat="42.835678" lon="0.138466">
        <ele>2218.4</ele>
        <time>2020-06-21T15:21:03Z</time>
      </trkpt>
      <trkpt lat="42.835736" lon="0.138557">
        <ele>2216.4</ele>
        <time>2020-06-21T15:21:15Z</time>
      </trkpt>
      <trkpt lat="42.835782" lon="0.138677">
        <ele>2214.6</ele>
        <time>2020-06-21T15:21:26Z</time>
      </trkpt>
      <trkpt lat="42.835799" lon="0.138805">
        <ele>2213.0</ele>
        <time>2020-06-21T15:21:38Z</time>
      </trkpt>
      <trkpt lat="42.835809" lon="0.138916">
        <ele>2212.1</ele>
        <time>2020-06-21T15:21:52Z</time>
      </trkpt>
      <trkpt lat="42.835836" lon="0.139021">
        <ele>2211.1</ele>
        <time>2020-06-21T15:22:08Z</time>
      </trkpt>
      <trkpt lat="42.835904" lon="0.139115">
        <ele>2209.3</ele>
        <time>2020-06-21T15:22:23Z</time>
      </trkpt>
      <trkpt lat="42.835966" lon="0.139219">
        <ele>2208.6</ele>
        <time>2020-06-21T15:22:36Z</time>
      </trkpt>
      <trkpt lat="42.836034" lon="0.139285">
        <ele>2204.9</ele>
        <time>2020-06-21T15:22:54Z</time>
      </trkpt>
      <trkpt lat="42.836107" lon="0.139333">
        <ele>2202.4</ele>
        <time>2020-06-21T15:23:12Z</time>
      </trkpt>
      <trkpt lat="42.836199" lon="0.139288">
        <ele>2199.8</ele>
        <time>2020-06-21T15:23:33Z</time>
      </trkpt>
      <trkpt lat="42.836291" lon="0.139304">
        <ele>2199.0</ele>
        <time>2020-06-21T15:23:49Z</time>
      </trkpt>
      <trkpt lat="42.836366" lon="0.139403">
        <ele>2196.2</ele>
        <time>2020-06-21T15:24:03Z</time>
      </trkpt>
      <trkpt lat="42.836453" lon="0.139454">
        <ele>2194.3</ele>
        <time>2020-06-21T15:24:24Z</time>
      </trkpt>
      <trkpt lat="42.836530" lon="0.139396">
        <ele>2192.4</ele>
        <time>2020-06-21T15:24:38Z</time>
      </trkpt>
      <trkpt lat="42.836634" lon="0.139400">
        <ele>2189.6</ele>
        <time>2020-06-21T15:24:52Z</time>
      </trkpt>
      <trkpt lat="42.836734" lon="0.139400">
        <ele>2187.6</ele>
        <time>2020-06-21T15:25:06Z</time>
      </trkpt>
      <trkpt lat="42.836825" lon="0.139418">
        <ele>2185.8</ele>
        <time>2020-06-21T15:25:19Z</time>
      </trkpt>
      <trkpt lat="42.836926" lon="0.139428">
        <ele>2182.9</ele>
        <time>2020-06-21T15:25:33Z</time>
      </trkpt>
      <trkpt lat="42.837009" lon="0.139414">
        <ele>2180.3</ele>
        <time>2020-06-21T15:25:50Z</time>
      </trkpt>
      <trkpt lat="42.837097" lon="0.139486">
        <ele>2176.4</ele>
        <time>2020-06-21T15:26:13Z</time>
      </trkpt>
      <trkpt lat="42.837164" lon="0.139557">
        <ele>2174.6</ele>
        <time>2020-06-21T15:26:44Z</time>
      </trkpt>
      <trkpt lat="42.837231" lon="0.139610">
        <ele>2171.2</ele>
        <time>2020-06-21T15:27:01Z</time>
      </trkpt>
      <trkpt lat="42.837328" lon="0.139557">
        <ele>2168.8</ele>
        <time>2020-06-21T15:27:17Z</time>
      </trkpt>
      <trkpt lat="42.837420" lon="0.139532">
        <ele>2167.1</ele>
        <time>2020-06-21T15:27:32Z</time>
      </trkpt>
      <trkpt lat="42.837492" lon="0.139585">
        <ele>2164.5</ele>
        <time>2020-06-21T15:27:49Z</time>
      </trkpt>
      <trkpt lat="42.837517" lon="0.139675">
        <ele>2161.8</ele>
        <time>2020-06-21T15:28:06Z</time>
      </trkpt>
      <trkpt lat="42.837600" lon="0.139692">
        <ele>2159.3</ele>
        <time>2020-06-21T15:28:22Z</time>
      </trkpt>
      <trkpt lat="42.837673" lon="0.139741">
        <ele>2159.3</ele>
        <time>2020-06-21T15:28:37Z</time>
      </trkpt>
      <trkpt lat="42.837740" lon="0.139838">
        <ele>2158.1</ele>
        <time>2020-06-21T15:28:52Z</time>
      </trkpt>
      <trkpt lat="42.837804" lon="0.139917">
        <ele>2154.1</ele>
        <time>2020-06-21T15:29:12Z</time>
      </trkpt>
      <trkpt lat="42.837891" lon="0.139967">
        <ele>2151.4</ele>
        <time>2020-06-21T15:29:29Z</time>
      </trkpt>
      <trkpt lat="42.837950" lon="0.140089">
        <ele>2151.5</ele>
        <time>2020-06-21T15:29:41Z</time>
      </trkpt>
      <trkpt lat="42.837994" lon="0.140213">
        <ele>2151.5</ele>
        <time>2020-06-21T15:29:51Z</time>
      </trkpt>
      <trkpt lat="42.838031" lon="0.140336">
        <ele>2151.4</ele>
        <time>2020-06-21T15:30:01Z</time>
      </trkpt>
      <trkpt lat="42.838074" lon="0.140450">
        <ele>2151.4</ele>
        <time>2020-06-21T15:30:11Z</time>
      </trkpt>
      <trkpt lat="42.838125" lon="0.140569">
        <ele>2151.4</ele>
        <time>2020-06-21T15:30:21Z</time>
      </trkpt>
      <trkpt lat="42.838166" lon="0.140687">
        <ele>2151.4</ele>
        <time>2020-06-21T15:30:32Z</time>
      </trkpt>
      <trkpt lat="42.838205" lon="0.140801">
        <ele>2151.4</ele>
        <time>2020-06-21T15:30:42Z</time>
      </trkpt>
      <trkpt lat="42.838265" lon="0.140899">
        <ele>2151.4</ele>
        <time>2020-06-21T15:30:51Z</time>
      </trkpt>
      <trkpt lat="42.838328" lon="0.140979">
        <ele>2151.4</ele>
        <time>2020-06-21T15:31:01Z</time>
      </trkpt>
      <trkpt lat="42.838414" lon="0.141030">
        <ele>2151.4</ele>
        <time>2020-06-21T15:31:11Z</time>
      </trkpt>
      <trkpt lat="42.838504" lon="0.141070">
        <ele>2151.4</ele>
        <time>2020-06-21T15:31:21Z</time>
      </trkpt>
      <trkpt lat="42.838593" lon="0.141146">
        <ele>2151.3</ele>
        <time>2020-06-21T15:31:33Z</time>
      </trkpt>
      <trkpt lat="42.838658" lon="0.141234">
        <ele>2151.3</ele>
        <time>2020-06-21T15:31:44Z</time>
      </trkpt>
      <trkpt lat="42.838702" lon="0.141352">
        <ele>2151.3</ele>
        <time>2020-06-21T15:31:54Z</time>
      </trkpt>
      <trkpt lat="42.838751" lon="0.141451">
        <ele>2151.3</ele>
        <time>2020-06-21T15:32:03Z</time>
      </trkpt>
      <trkpt lat="42.838769" lon="0.141591">
        <ele>2151.2</ele>
        <time>2020-06-21T15:32:13Z</time>
      </trkpt>
      <trkpt lat="42.838762" lon="0.141725">
        <ele>2151.2</ele>
        <time>2020-06-21T15:32:22Z</time>
      </trkpt>
      <trkpt lat="42.838753" lon="0.141850">
        <ele>2151.1</ele>
        <time>2020-06-21T15:32:31Z</time>
      </trkpt>
      <trkpt lat="42.838740" lon="0.141977">
        <ele>2151.1</ele>
        <time>2020-06-21T15:32:40Z</time>
      </trkpt>
      <trkpt lat="42.838729" lon="0.142103">
        <ele>2151.1</ele>
        <time>2020-06-21T15:32:49Z</time>
      </trkpt>
      <trkpt lat="42.838713" lon="0.142235">
        <ele>2151.0</ele>
        <time>2020-06-21T15:32:59Z</time>
      </trkpt>
      <trkpt lat="42.838703" lon="0.142354">
        <ele>2151.0</ele>
        <time>2020-06-21T15:33:08Z</time>
      </trkpt>
      <trkpt lat="42.838695" lon="0.142477">
        <ele>2150.9</ele>
        <time>2020-06-21T15:33:21Z</time>
      </trkpt>
      <trkpt lat="42.838687" lon="0.142612">
        <ele>2150.8</ele>
        <time>2020-06-21T15:33:30Z</time>
      </trkpt>
      <trkpt lat="42.838704" lon="0.142738">
        <ele>2150.8</ele>
        <time>2020-06-21T15:33:39Z</time>
      </trkpt>
      <trkpt lat="42.838733" lon="0.142857">
        <ele>2150.7</ele>
        <time>2020-06-21T15:33:47Z</time>
      </trkpt>
      <trkpt lat="42.838787" lon="0.142978">
        <ele>2150.7</ele>
        <time>2020-06-21T15:33:56Z</time>
      </trkpt>
      <trkpt lat="42.838849" lon="0.143081">
        <ele>2150.6</ele>
        <time>2020-06-21T15:34:06Z</time>
      </trkpt>
      <trkpt lat="42.838920" lon="0.143173">
        <ele>2150.6</ele>
        <time>2020-06-21T15:34:15Z</time>
      </trkpt>
      <trkpt lat="42.838981" lon="0.143281">
        <ele>2150.4</ele>
        <time>2020-06-21T15:34:32Z</time>
      </trkpt>
      <trkpt lat="42.839050" lon="0.143382">
        <ele>2150.3</ele>
        <time>2020-06-21T15:34:42Z</time>
      </trkpt>
      <trkpt lat="42.839112" lon="0.143476">
        <ele>2150.3</ele>
        <time>2020-06-21T15:34:53Z</time>
      </trkpt>
      <trkpt lat="42.839182" lon="0.143583">
        <ele>2150.2</ele>
        <time>2020-06-21T15:35:05Z</time>
      </trkpt>
      <trkpt lat="42.839272" lon="0.143544">
        <ele>2150.0</ele>
        <time>2020-06-21T15:35:18Z</time>
      </trkpt>
      <trkpt lat="42.839355" lon="0.143439">
        <ele>2149.9</ele>
        <time>2020-06-21T15:35:29Z</time>
      </trkpt>
      <trkpt lat="42.839428" lon="0.143347">
        <ele>2149.9</ele>
        <time>2020-06-21T15:35:39Z</time>
      </trkpt>
      <trkpt lat="42.839495" lon="0.143267">
        <ele>2149.9</ele>
        <time>2020-06-21T15:35:49Z</time>
      </trkpt>
      <trkpt lat="42.839600" lon="0.143245">
        <ele>2149.8</ele>
        <time>2020-06-21T15:35:59Z</time>
      </trkpt>
      <trkpt lat="42.839692" lon="0.143227">
        <ele>2149.7</ele>
        <time>2020-06-21T15:36:11Z</time>
      </trkpt>
      <trkpt lat="42.839814" lon="0.143200">
        <ele>2149.6</ele>
        <time>2020-06-21T15:36:26Z</time>
      </trkpt>
      <trkpt lat="42.839941" lon="0.143156">
        <ele>2151.8</ele>
        <time>2020-06-21T15:36:39Z</time>
      </trkpt>
      <trkpt lat="42.840062" lon="0.143127">
        <ele>2151.7</ele>
        <time>2020-06-21T15:36:51Z</time>
      </trkpt>
      <trkpt lat="42.840182" lon="0.143097">
        <ele>2152.4</ele>
        <time>2020-06-21T15:37:02Z</time>
      </trkpt>
      <trkpt lat="42.840297" lon="0.143082">
        <ele>2152.3</ele>
        <time>2020-06-21T15:37:12Z</time>
      </trkpt>
      <trkpt lat="42.840426" lon="0.143061">
        <ele>2153.1</ele>
        <time>2020-06-21T15:37:24Z</time>
      </trkpt>
      <trkpt lat="42.840538" lon="0.143046">
        <ele>2153.0</ele>
        <time>2020-06-21T15:37:36Z</time>
      </trkpt>
      <trkpt lat="42.840629" lon="0.143124">
        <ele>2153.8</ele>
        <time>2020-06-21T15:37:47Z</time>
      </trkpt>
      <trkpt lat="42.840605" lon="0.143260">
        <ele>2154.6</ele>
        <time>2020-06-21T15:37:58Z</time>
      </trkpt>
      <trkpt lat="42.840543" lon="0.143362">
        <ele>2155.4</ele>
        <time>2020-06-21T15:38:09Z</time>
      </trkpt>
      <trkpt lat="42.840483" lon="0.143464">
        <ele>2156.3</ele>
        <time>2020-06-21T15:38:20Z</time>
      </trkpt>
      <trkpt lat="42.840473" lon="0.143586">
        <ele>2157.0</ele>
        <time>2020-06-21T15:38:32Z</time>
      </trkpt>
      <trkpt lat="42.840503" lon="0.143716">
        <ele>2157.8</ele>
        <time>2020-06-21T15:38:45Z</time>
      </trkpt>
      <trkpt lat="42.840492" lon="0.143856">
        <ele>2157.8</ele>
        <time>2020-06-21T15:38:57Z</time>
      </trkpt>
    </trkseg>
  </trk>
</gpx>

